<?xml version="1.0" encoding="UTF-8" standalone="no" ?>
<gpx xmlns="http://www.topografix.com/GPX/1/1" xmlns:xsi="http://www.w3.org/2001/XMLSchema-instance" xsi:schemaLocation="http://www.topografix.com/GPX/1/1 http://www.topografix.com/GPX/1/1/gpx.xsd" version="1.1" creator="VisuGPX - https://www.visugpx.com">
  <metadata>
    <name>VTT Monnières-Rocheserviere </name>
  </metadata>
  <trk>
    <name><![CDATA[De Monnières à Rocheservière-22609705]]></name>
    <trkseg>
      <trkpt lat="47.13713" lon="-1.35367">
        <ele>11</ele>
        <time>2025-10-03T21:07:37Z</time>
      </trkpt>
      <trkpt lat="47.13692" lon="-1.35368">
        <ele>12</ele>
        <time>2025-10-03T21:07:42Z</time>
      </trkpt>
      <trkpt lat="47.13662" lon="-1.35372">
        <ele>14</ele>
        <time>2025-10-03T21:07:49Z</time>
      </trkpt>
      <trkpt lat="47.13661" lon="-1.35378">
        <ele>14</ele>
        <time>2025-10-03T21:07:50Z</time>
      </trkpt>
      <trkpt lat="47.13655" lon="-1.35392">
        <ele>15</ele>
        <time>2025-10-03T21:07:53Z</time>
      </trkpt>
      <trkpt lat="47.13619" lon="-1.35447">
        <ele>16</ele>
        <time>2025-10-03T21:08:05Z</time>
      </trkpt>
      <trkpt lat="47.13603" lon="-1.35465">
        <ele>17</ele>
        <time>2025-10-03T21:08:09Z</time>
      </trkpt>
      <trkpt lat="47.13586" lon="-1.35482">
        <ele>17</ele>
        <time>2025-10-03T21:08:14Z</time>
      </trkpt>
      <trkpt lat="47.1354" lon="-1.35525">
        <ele>18</ele>
        <time>2025-10-03T21:08:27Z</time>
      </trkpt>
      <trkpt lat="47.13541" lon="-1.35529">
        <ele>18</ele>
        <time>2025-10-03T21:08:28Z</time>
      </trkpt>
      <trkpt lat="47.13541" lon="-1.35534">
        <ele>18</ele>
        <time>2025-10-03T21:08:28Z</time>
      </trkpt>
      <trkpt lat="47.13539" lon="-1.35537">
        <ele>18</ele>
        <time>2025-10-03T21:08:29Z</time>
      </trkpt>
      <trkpt lat="47.13482" lon="-1.35558">
        <ele>19</ele>
        <time>2025-10-03T21:08:43Z</time>
      </trkpt>
      <trkpt lat="47.13451" lon="-1.35571">
        <ele>20</ele>
        <time>2025-10-03T21:08:50Z</time>
      </trkpt>
      <trkpt lat="47.13398" lon="-1.35588">
        <ele>21</ele>
        <time>2025-10-03T21:09:03Z</time>
      </trkpt>
      <trkpt lat="47.13352" lon="-1.35606">
        <ele>22</ele>
        <time>2025-10-03T21:09:14Z</time>
      </trkpt>
      <trkpt lat="47.13346" lon="-1.3561">
        <ele>22</ele>
        <time>2025-10-03T21:09:16Z</time>
      </trkpt>
      <trkpt lat="47.13348" lon="-1.35618">
        <ele>22</ele>
        <time>2025-10-03T21:09:17Z</time>
      </trkpt>
      <trkpt lat="47.1335" lon="-1.35633">
        <ele>21</ele>
        <time>2025-10-03T21:09:19Z</time>
      </trkpt>
      <trkpt lat="47.13353" lon="-1.3567">
        <ele>21</ele>
        <time>2025-10-03T21:09:25Z</time>
      </trkpt>
      <trkpt lat="47.13288" lon="-1.35682">
        <ele>22</ele>
        <time>2025-10-03T21:09:41Z</time>
      </trkpt>
      <trkpt lat="47.1324" lon="-1.35686">
        <ele>23</ele>
        <time>2025-10-03T21:09:52Z</time>
      </trkpt>
      <trkpt lat="47.1324" lon="-1.35621">
        <ele>25</ele>
        <time>2025-10-03T21:10:02Z</time>
      </trkpt>
      <trkpt lat="47.13239" lon="-1.35603">
        <ele>26</ele>
        <time>2025-10-03T21:10:05Z</time>
      </trkpt>
      <trkpt lat="47.13236" lon="-1.35587">
        <ele>27</ele>
        <time>2025-10-03T21:10:08Z</time>
      </trkpt>
      <trkpt lat="47.13232" lon="-1.35573">
        <ele>27</ele>
        <time>2025-10-03T21:10:10Z</time>
      </trkpt>
      <trkpt lat="47.13229" lon="-1.35565">
        <ele>27</ele>
        <time>2025-10-03T21:10:12Z</time>
      </trkpt>
      <trkpt lat="47.13226" lon="-1.35558">
        <ele>28</ele>
        <time>2025-10-03T21:10:13Z</time>
      </trkpt>
      <trkpt lat="47.13222" lon="-1.35555">
        <ele>28</ele>
        <time>2025-10-03T21:10:14Z</time>
      </trkpt>
      <trkpt lat="47.13215" lon="-1.35554">
        <ele>28</ele>
        <time>2025-10-03T21:10:16Z</time>
      </trkpt>
      <trkpt lat="47.13205" lon="-1.35557">
        <ele>29</ele>
        <time>2025-10-03T21:10:18Z</time>
      </trkpt>
      <trkpt lat="47.13195" lon="-1.35559">
        <ele>30</ele>
        <time>2025-10-03T21:10:20Z</time>
      </trkpt>
      <trkpt lat="47.13185" lon="-1.35558">
        <ele>30</ele>
        <time>2025-10-03T21:10:23Z</time>
      </trkpt>
      <trkpt lat="47.13174" lon="-1.35555">
        <ele>31</ele>
        <time>2025-10-03T21:10:25Z</time>
      </trkpt>
      <trkpt lat="47.13166" lon="-1.35547">
        <ele>31</ele>
        <time>2025-10-03T21:10:28Z</time>
      </trkpt>
      <trkpt lat="47.13152" lon="-1.35551">
        <ele>32</ele>
        <time>2025-10-03T21:10:31Z</time>
      </trkpt>
      <trkpt lat="47.13146" lon="-1.35547">
        <ele>32</ele>
        <time>2025-10-03T21:10:32Z</time>
      </trkpt>
      <trkpt lat="47.13114" lon="-1.35516">
        <ele>35</ele>
        <time>2025-10-03T21:10:41Z</time>
      </trkpt>
      <trkpt lat="47.13095" lon="-1.35497">
        <ele>36</ele>
        <time>2025-10-03T21:10:47Z</time>
      </trkpt>
      <trkpt lat="47.13064" lon="-1.35467">
        <ele>38</ele>
        <time>2025-10-03T21:10:55Z</time>
      </trkpt>
      <trkpt lat="47.13057" lon="-1.35459">
        <ele>38</ele>
        <time>2025-10-03T21:10:57Z</time>
      </trkpt>
      <trkpt lat="47.13053" lon="-1.35453">
        <ele>38</ele>
        <time>2025-10-03T21:10:59Z</time>
      </trkpt>
      <trkpt lat="47.13048" lon="-1.35444">
        <ele>39</ele>
        <time>2025-10-03T21:11:01Z</time>
      </trkpt>
      <trkpt lat="47.1304" lon="-1.35424">
        <ele>39</ele>
        <time>2025-10-03T21:11:04Z</time>
      </trkpt>
      <trkpt lat="47.13035" lon="-1.35407">
        <ele>39</ele>
        <time>2025-10-03T21:11:07Z</time>
      </trkpt>
      <trkpt lat="47.13019" lon="-1.3534">
        <ele>38</ele>
        <time>2025-10-03T21:11:19Z</time>
      </trkpt>
      <trkpt lat="47.13012" lon="-1.35304">
        <ele>38</ele>
        <time>2025-10-03T21:11:24Z</time>
      </trkpt>
      <trkpt lat="47.13011" lon="-1.3528">
        <ele>38</ele>
        <time>2025-10-03T21:11:28Z</time>
      </trkpt>
      <trkpt lat="47.1301" lon="-1.35273">
        <ele>38</ele>
        <time>2025-10-03T21:11:29Z</time>
      </trkpt>
      <trkpt lat="47.13008" lon="-1.35271">
        <ele>38</ele>
        <time>2025-10-03T21:11:30Z</time>
      </trkpt>
      <trkpt lat="47.12999" lon="-1.35257">
        <ele>38</ele>
        <time>2025-10-03T21:11:33Z</time>
      </trkpt>
      <trkpt lat="47.12994" lon="-1.35255">
        <ele>38</ele>
        <time>2025-10-03T21:11:34Z</time>
      </trkpt>
      <trkpt lat="47.12989" lon="-1.35255">
        <ele>38</ele>
        <time>2025-10-03T21:11:35Z</time>
      </trkpt>
      <trkpt lat="47.12983" lon="-1.35257">
        <ele>38</ele>
        <time>2025-10-03T21:11:37Z</time>
      </trkpt>
      <trkpt lat="47.12966" lon="-1.3524">
        <ele>39</ele>
        <time>2025-10-03T21:11:42Z</time>
      </trkpt>
      <trkpt lat="47.12957" lon="-1.35231">
        <ele>39</ele>
        <time>2025-10-03T21:11:44Z</time>
      </trkpt>
      <trkpt lat="47.12935" lon="-1.3521">
        <ele>40</ele>
        <time>2025-10-03T21:11:50Z</time>
      </trkpt>
      <trkpt lat="47.12914" lon="-1.35189">
        <ele>40</ele>
        <time>2025-10-03T21:11:56Z</time>
      </trkpt>
      <trkpt lat="47.12907" lon="-1.35183">
        <ele>40</ele>
        <time>2025-10-03T21:11:58Z</time>
      </trkpt>
      <trkpt lat="47.12791" lon="-1.35072">
        <ele>43</ele>
        <time>2025-10-03T21:12:30Z</time>
      </trkpt>
      <trkpt lat="47.12785" lon="-1.35066">
        <ele>43</ele>
        <time>2025-10-03T21:12:32Z</time>
      </trkpt>
      <trkpt lat="47.12779" lon="-1.35074">
        <ele>43</ele>
        <time>2025-10-03T21:12:34Z</time>
      </trkpt>
      <trkpt lat="47.1271" lon="-1.35139">
        <ele>44</ele>
        <time>2025-10-03T21:12:53Z</time>
      </trkpt>
      <trkpt lat="47.12704" lon="-1.35147">
        <ele>44</ele>
        <time>2025-10-03T21:12:55Z</time>
      </trkpt>
      <trkpt lat="47.12695" lon="-1.3516">
        <ele>44</ele>
        <time>2025-10-03T21:12:58Z</time>
      </trkpt>
      <trkpt lat="47.12674" lon="-1.35173">
        <ele>44</ele>
        <time>2025-10-03T21:13:03Z</time>
      </trkpt>
      <trkpt lat="47.12657" lon="-1.35179">
        <ele>44</ele>
        <time>2025-10-03T21:13:07Z</time>
      </trkpt>
      <trkpt lat="47.1263" lon="-1.35185">
        <ele>45</ele>
        <time>2025-10-03T21:13:14Z</time>
      </trkpt>
      <trkpt lat="47.12576" lon="-1.35187">
        <ele>45</ele>
        <time>2025-10-03T21:13:26Z</time>
      </trkpt>
      <trkpt lat="47.12532" lon="-1.35195">
        <ele>46</ele>
        <time>2025-10-03T21:13:37Z</time>
      </trkpt>
      <trkpt lat="47.12486" lon="-1.35215">
        <ele>47</ele>
        <time>2025-10-03T21:13:48Z</time>
      </trkpt>
      <trkpt lat="47.12466" lon="-1.35226">
        <ele>47</ele>
        <time>2025-10-03T21:13:53Z</time>
      </trkpt>
      <trkpt lat="47.12451" lon="-1.3524">
        <ele>47</ele>
        <time>2025-10-03T21:13:57Z</time>
      </trkpt>
      <trkpt lat="47.12433" lon="-1.3526">
        <ele>47</ele>
        <time>2025-10-03T21:14:02Z</time>
      </trkpt>
      <trkpt lat="47.12405" lon="-1.35289">
        <ele>48</ele>
        <time>2025-10-03T21:14:10Z</time>
      </trkpt>
      <trkpt lat="47.12388" lon="-1.35302">
        <ele>48</ele>
        <time>2025-10-03T21:14:15Z</time>
      </trkpt>
      <trkpt lat="47.12367" lon="-1.35311">
        <ele>49</ele>
        <time>2025-10-03T21:14:20Z</time>
      </trkpt>
      <trkpt lat="47.12338" lon="-1.35315">
        <ele>50</ele>
        <time>2025-10-03T21:14:27Z</time>
      </trkpt>
      <trkpt lat="47.12316" lon="-1.35322">
        <ele>51</ele>
        <time>2025-10-03T21:14:32Z</time>
      </trkpt>
      <trkpt lat="47.12216" lon="-1.35374">
        <ele>54</ele>
        <time>2025-10-03T21:14:57Z</time>
      </trkpt>
      <trkpt lat="47.12143" lon="-1.35403">
        <ele>55</ele>
        <time>2025-10-03T21:15:14Z</time>
      </trkpt>
      <trkpt lat="47.12057" lon="-1.35459">
        <ele>56</ele>
        <time>2025-10-03T21:15:36Z</time>
      </trkpt>
      <trkpt lat="47.12051" lon="-1.35462">
        <ele>55</ele>
        <time>2025-10-03T21:15:38Z</time>
      </trkpt>
      <trkpt lat="47.11942" lon="-1.35545">
        <ele>54</ele>
        <time>2025-10-03T21:16:07Z</time>
      </trkpt>
      <trkpt lat="47.11901" lon="-1.35567">
        <ele>54</ele>
        <time>2025-10-03T21:16:17Z</time>
      </trkpt>
      <trkpt lat="47.11877" lon="-1.3558">
        <ele>53</ele>
        <time>2025-10-03T21:16:23Z</time>
      </trkpt>
      <trkpt lat="47.11846" lon="-1.35594">
        <ele>51</ele>
        <time>2025-10-03T21:16:30Z</time>
      </trkpt>
      <trkpt lat="47.11826" lon="-1.35609">
        <ele>50</ele>
        <time>2025-10-03T21:16:36Z</time>
      </trkpt>
      <trkpt lat="47.11813" lon="-1.35623">
        <ele>51</ele>
        <time>2025-10-03T21:16:39Z</time>
      </trkpt>
      <trkpt lat="47.11806" lon="-1.35622">
        <ele>50</ele>
        <time>2025-10-03T21:16:41Z</time>
      </trkpt>
      <trkpt lat="47.11805" lon="-1.35634">
        <ele>51</ele>
        <time>2025-10-03T21:16:43Z</time>
      </trkpt>
      <trkpt lat="47.11805" lon="-1.35649">
        <ele>51</ele>
        <time>2025-10-03T21:16:45Z</time>
      </trkpt>
      <trkpt lat="47.11806" lon="-1.35661">
        <ele>52</ele>
        <time>2025-10-03T21:16:47Z</time>
      </trkpt>
      <trkpt lat="47.11752" lon="-1.35743">
        <ele>53</ele>
        <time>2025-10-03T21:17:05Z</time>
      </trkpt>
      <trkpt lat="47.11713" lon="-1.35782">
        <ele>54</ele>
        <time>2025-10-03T21:17:16Z</time>
      </trkpt>
      <trkpt lat="47.11659" lon="-1.35811">
        <ele>54</ele>
        <time>2025-10-03T21:17:30Z</time>
      </trkpt>
      <trkpt lat="47.11624" lon="-1.35829">
        <ele>54</ele>
        <time>2025-10-03T21:17:38Z</time>
      </trkpt>
      <trkpt lat="47.11552" lon="-1.35862">
        <ele>53</ele>
        <time>2025-10-03T21:17:56Z</time>
      </trkpt>
      <trkpt lat="47.11471" lon="-1.35892">
        <ele>50</ele>
        <time>2025-10-03T21:18:16Z</time>
      </trkpt>
      <trkpt lat="47.11469" lon="-1.35905">
        <ele>50</ele>
        <time>2025-10-03T21:18:18Z</time>
      </trkpt>
      <trkpt lat="47.11448" lon="-1.35901">
        <ele>49</ele>
        <time>2025-10-03T21:18:23Z</time>
      </trkpt>
      <trkpt lat="47.11401" lon="-1.35981">
        <ele>51</ele>
        <time>2025-10-03T21:18:39Z</time>
      </trkpt>
      <trkpt lat="47.11353" lon="-1.35984">
        <ele>52</ele>
        <time>2025-10-03T21:18:51Z</time>
      </trkpt>
      <trkpt lat="47.11318" lon="-1.35949">
        <ele>51</ele>
        <time>2025-10-03T21:19:01Z</time>
      </trkpt>
      <trkpt lat="47.11301" lon="-1.35959">
        <ele>51</ele>
        <time>2025-10-03T21:19:05Z</time>
      </trkpt>
      <trkpt lat="47.11295" lon="-1.35957">
        <ele>51</ele>
        <time>2025-10-03T21:19:06Z</time>
      </trkpt>
      <trkpt lat="47.11251" lon="-1.35965">
        <ele>50</ele>
        <time>2025-10-03T21:19:17Z</time>
      </trkpt>
      <trkpt lat="47.11241" lon="-1.35968">
        <ele>50</ele>
        <time>2025-10-03T21:19:19Z</time>
      </trkpt>
      <trkpt lat="47.11228" lon="-1.35974">
        <ele>50</ele>
        <time>2025-10-03T21:19:22Z</time>
      </trkpt>
      <trkpt lat="47.11201" lon="-1.35994">
        <ele>49</ele>
        <time>2025-10-03T21:19:29Z</time>
      </trkpt>
      <trkpt lat="47.11194" lon="-1.36001">
        <ele>49</ele>
        <time>2025-10-03T21:19:31Z</time>
      </trkpt>
      <trkpt lat="47.1119" lon="-1.36005">
        <ele>49</ele>
        <time>2025-10-03T21:19:32Z</time>
      </trkpt>
      <trkpt lat="47.11174" lon="-1.36026">
        <ele>49</ele>
        <time>2025-10-03T21:19:37Z</time>
      </trkpt>
      <trkpt lat="47.11156" lon="-1.36044">
        <ele>50</ele>
        <time>2025-10-03T21:19:42Z</time>
      </trkpt>
      <trkpt lat="47.11142" lon="-1.36055">
        <ele>50</ele>
        <time>2025-10-03T21:19:46Z</time>
      </trkpt>
      <trkpt lat="47.11113" lon="-1.36082">
        <ele>51</ele>
        <time>2025-10-03T21:19:54Z</time>
      </trkpt>
      <trkpt lat="47.11107" lon="-1.36091">
        <ele>51</ele>
        <time>2025-10-03T21:19:56Z</time>
      </trkpt>
      <trkpt lat="47.11105" lon="-1.36102">
        <ele>52</ele>
        <time>2025-10-03T21:19:58Z</time>
      </trkpt>
      <trkpt lat="47.11101" lon="-1.361">
        <ele>52</ele>
        <time>2025-10-03T21:19:59Z</time>
      </trkpt>
      <trkpt lat="47.11097" lon="-1.36101">
        <ele>52</ele>
        <time>2025-10-03T21:20:00Z</time>
      </trkpt>
      <trkpt lat="47.10909" lon="-1.36163">
        <ele>55</ele>
        <time>2025-10-03T21:20:45Z</time>
      </trkpt>
      <trkpt lat="47.10877" lon="-1.36174">
        <ele>56</ele>
        <time>2025-10-03T21:20:53Z</time>
      </trkpt>
      <trkpt lat="47.1086" lon="-1.36181">
        <ele>57</ele>
        <time>2025-10-03T21:20:57Z</time>
      </trkpt>
      <trkpt lat="47.10718" lon="-1.36278">
        <ele>59</ele>
        <time>2025-10-03T21:21:33Z</time>
      </trkpt>
      <trkpt lat="47.10702" lon="-1.3629">
        <ele>59</ele>
        <time>2025-10-03T21:21:37Z</time>
      </trkpt>
      <trkpt lat="47.10623" lon="-1.36345">
        <ele>59</ele>
        <time>2025-10-03T21:21:58Z</time>
      </trkpt>
      <trkpt lat="47.10607" lon="-1.36354">
        <ele>59</ele>
        <time>2025-10-03T21:22:02Z</time>
      </trkpt>
      <trkpt lat="47.10571" lon="-1.36366">
        <ele>59</ele>
        <time>2025-10-03T21:22:11Z</time>
      </trkpt>
      <trkpt lat="47.10523" lon="-1.36383">
        <ele>57</ele>
        <time>2025-10-03T21:22:22Z</time>
      </trkpt>
      <trkpt lat="47.10461" lon="-1.36402">
        <ele>57</ele>
        <time>2025-10-03T21:22:37Z</time>
      </trkpt>
      <trkpt lat="47.10437" lon="-1.36407">
        <ele>57</ele>
        <time>2025-10-03T21:22:42Z</time>
      </trkpt>
      <trkpt lat="47.1041" lon="-1.36408">
        <ele>57</ele>
        <time>2025-10-03T21:22:49Z</time>
      </trkpt>
      <trkpt lat="47.10245" lon="-1.3639">
        <ele>55</ele>
        <time>2025-10-03T21:23:27Z</time>
      </trkpt>
      <trkpt lat="47.10199" lon="-1.36384">
        <ele>55</ele>
        <time>2025-10-03T21:23:38Z</time>
      </trkpt>
      <trkpt lat="47.10071" lon="-1.36372">
        <ele>53</ele>
        <time>2025-10-03T21:24:08Z</time>
      </trkpt>
      <trkpt lat="47.10033" lon="-1.36371">
        <ele>53</ele>
        <time>2025-10-03T21:24:17Z</time>
      </trkpt>
      <trkpt lat="47.10021" lon="-1.36373">
        <ele>53</ele>
        <time>2025-10-03T21:24:20Z</time>
      </trkpt>
      <trkpt lat="47.09998" lon="-1.36381">
        <ele>53</ele>
        <time>2025-10-03T21:24:25Z</time>
      </trkpt>
      <trkpt lat="47.09852" lon="-1.3645">
        <ele>53</ele>
        <time>2025-10-03T21:25:01Z</time>
      </trkpt>
      <trkpt lat="47.09833" lon="-1.36458">
        <ele>54</ele>
        <time>2025-10-03T21:25:06Z</time>
      </trkpt>
      <trkpt lat="47.09815" lon="-1.3646">
        <ele>54</ele>
        <time>2025-10-03T21:25:10Z</time>
      </trkpt>
      <trkpt lat="47.09806" lon="-1.36459">
        <ele>54</ele>
        <time>2025-10-03T21:25:12Z</time>
      </trkpt>
      <trkpt lat="47.09794" lon="-1.36456">
        <ele>55</ele>
        <time>2025-10-03T21:25:15Z</time>
      </trkpt>
      <trkpt lat="47.09784" lon="-1.36455">
        <ele>55</ele>
        <time>2025-10-03T21:25:17Z</time>
      </trkpt>
      <trkpt lat="47.09772" lon="-1.36454">
        <ele>56</ele>
        <time>2025-10-03T21:25:20Z</time>
      </trkpt>
      <trkpt lat="47.09758" lon="-1.36451">
        <ele>56</ele>
        <time>2025-10-03T21:25:23Z</time>
      </trkpt>
      <trkpt lat="47.09746" lon="-1.36449">
        <ele>57</ele>
        <time>2025-10-03T21:25:26Z</time>
      </trkpt>
      <trkpt lat="47.09741" lon="-1.36449">
        <ele>57</ele>
        <time>2025-10-03T21:25:27Z</time>
      </trkpt>
      <trkpt lat="47.09731" lon="-1.36454">
        <ele>57</ele>
        <time>2025-10-03T21:25:30Z</time>
      </trkpt>
      <trkpt lat="47.09697" lon="-1.36475">
        <ele>56</ele>
        <time>2025-10-03T21:25:39Z</time>
      </trkpt>
      <trkpt lat="47.09693" lon="-1.36477">
        <ele>56</ele>
        <time>2025-10-03T21:25:39Z</time>
      </trkpt>
      <trkpt lat="47.09687" lon="-1.36476">
        <ele>56</ele>
        <time>2025-10-03T21:25:41Z</time>
      </trkpt>
      <trkpt lat="47.0968" lon="-1.36474">
        <ele>56</ele>
        <time>2025-10-03T21:25:43Z</time>
      </trkpt>
      <trkpt lat="47.09659" lon="-1.36457">
        <ele>56</ele>
        <time>2025-10-03T21:25:48Z</time>
      </trkpt>
      <trkpt lat="47.09638" lon="-1.36443">
        <ele>56</ele>
        <time>2025-10-03T21:25:54Z</time>
      </trkpt>
      <trkpt lat="47.09609" lon="-1.36444">
        <ele>56</ele>
        <time>2025-10-03T21:26:00Z</time>
      </trkpt>
      <trkpt lat="47.09609" lon="-1.36447">
        <ele>56</ele>
        <time>2025-10-03T21:26:01Z</time>
      </trkpt>
      <trkpt lat="47.09598" lon="-1.3645">
        <ele>55</ele>
        <time>2025-10-03T21:26:03Z</time>
      </trkpt>
      <trkpt lat="47.09587" lon="-1.36451">
        <ele>55</ele>
        <time>2025-10-03T21:26:06Z</time>
      </trkpt>
      <trkpt lat="47.09577" lon="-1.36449">
        <ele>55</ele>
        <time>2025-10-03T21:26:08Z</time>
      </trkpt>
      <trkpt lat="47.09559" lon="-1.36442">
        <ele>54</ele>
        <time>2025-10-03T21:26:13Z</time>
      </trkpt>
      <trkpt lat="47.09428" lon="-1.36379">
        <ele>51</ele>
        <time>2025-10-03T21:26:45Z</time>
      </trkpt>
      <trkpt lat="47.0939" lon="-1.36359">
        <ele>50</ele>
        <time>2025-10-03T21:26:54Z</time>
      </trkpt>
      <trkpt lat="47.0933" lon="-1.36322">
        <ele>49</ele>
        <time>2025-10-03T21:27:10Z</time>
      </trkpt>
      <trkpt lat="47.09274" lon="-1.36286">
        <ele>47</ele>
        <time>2025-10-03T21:27:24Z</time>
      </trkpt>
      <trkpt lat="47.09257" lon="-1.36277">
        <ele>46</ele>
        <time>2025-10-03T21:27:28Z</time>
      </trkpt>
      <trkpt lat="47.09225" lon="-1.36302">
        <ele>47</ele>
        <time>2025-10-03T21:27:36Z</time>
      </trkpt>
      <trkpt lat="47.09205" lon="-1.36314">
        <ele>47</ele>
        <time>2025-10-03T21:27:42Z</time>
      </trkpt>
      <trkpt lat="47.0912" lon="-1.36346">
        <ele>45</ele>
        <time>2025-10-03T21:28:02Z</time>
      </trkpt>
      <trkpt lat="47.091" lon="-1.36359">
        <ele>45</ele>
        <time>2025-10-03T21:28:07Z</time>
      </trkpt>
      <trkpt lat="47.09083" lon="-1.36373">
        <ele>45</ele>
        <time>2025-10-03T21:28:12Z</time>
      </trkpt>
      <trkpt lat="47.0905" lon="-1.36403">
        <ele>46</ele>
        <time>2025-10-03T21:28:21Z</time>
      </trkpt>
      <trkpt lat="47.08975" lon="-1.36466">
        <ele>47</ele>
        <time>2025-10-03T21:28:41Z</time>
      </trkpt>
      <trkpt lat="47.0885" lon="-1.36557">
        <ele>48</ele>
        <time>2025-10-03T21:29:13Z</time>
      </trkpt>
      <trkpt lat="47.08799" lon="-1.36467">
        <ele>46</ele>
        <time>2025-10-03T21:29:32Z</time>
      </trkpt>
      <trkpt lat="47.08782" lon="-1.36433">
        <ele>46</ele>
        <time>2025-10-03T21:29:39Z</time>
      </trkpt>
      <trkpt lat="47.08775" lon="-1.36413">
        <ele>45</ele>
        <time>2025-10-03T21:29:42Z</time>
      </trkpt>
      <trkpt lat="47.08769" lon="-1.36411">
        <ele>45</ele>
        <time>2025-10-03T21:29:44Z</time>
      </trkpt>
      <trkpt lat="47.08763" lon="-1.36413">
        <ele>45</ele>
        <time>2025-10-03T21:29:45Z</time>
      </trkpt>
      <trkpt lat="47.08759" lon="-1.36417">
        <ele>45</ele>
        <time>2025-10-03T21:29:46Z</time>
      </trkpt>
      <trkpt lat="47.08749" lon="-1.36548">
        <ele>47</ele>
        <time>2025-10-03T21:30:07Z</time>
      </trkpt>
      <trkpt lat="47.08631" lon="-1.36512">
        <ele>46</ele>
        <time>2025-10-03T21:30:35Z</time>
      </trkpt>
      <trkpt lat="47.08608" lon="-1.36507">
        <ele>46</ele>
        <time>2025-10-03T21:30:41Z</time>
      </trkpt>
      <trkpt lat="47.08586" lon="-1.36509">
        <ele>46</ele>
        <time>2025-10-03T21:30:46Z</time>
      </trkpt>
      <trkpt lat="47.08516" lon="-1.36524">
        <ele>45</ele>
        <time>2025-10-03T21:31:03Z</time>
      </trkpt>
      <trkpt lat="47.08451" lon="-1.36537">
        <ele>45</ele>
        <time>2025-10-03T21:31:18Z</time>
      </trkpt>
      <trkpt lat="47.08314" lon="-1.36567">
        <ele>46</ele>
        <time>2025-10-03T21:31:50Z</time>
      </trkpt>
      <trkpt lat="47.08261" lon="-1.36583">
        <ele>45</ele>
        <time>2025-10-03T21:32:03Z</time>
      </trkpt>
      <trkpt lat="47.08241" lon="-1.36586">
        <ele>45</ele>
        <time>2025-10-03T21:32:08Z</time>
      </trkpt>
      <trkpt lat="47.08231" lon="-1.36585">
        <ele>45</ele>
        <time>2025-10-03T21:32:10Z</time>
      </trkpt>
      <trkpt lat="47.08189" lon="-1.36572">
        <ele>45</ele>
        <time>2025-10-03T21:32:20Z</time>
      </trkpt>
      <trkpt lat="47.08155" lon="-1.36562">
        <ele>45</ele>
        <time>2025-10-03T21:32:28Z</time>
      </trkpt>
      <trkpt lat="47.08133" lon="-1.36556">
        <ele>45</ele>
        <time>2025-10-03T21:32:33Z</time>
      </trkpt>
      <trkpt lat="47.08121" lon="-1.3655">
        <ele>45</ele>
        <time>2025-10-03T21:32:36Z</time>
      </trkpt>
      <trkpt lat="47.08112" lon="-1.36547">
        <ele>45</ele>
        <time>2025-10-03T21:32:38Z</time>
      </trkpt>
      <trkpt lat="47.08104" lon="-1.36548">
        <ele>45</ele>
        <time>2025-10-03T21:32:40Z</time>
      </trkpt>
      <trkpt lat="47.08089" lon="-1.36555">
        <ele>45</ele>
        <time>2025-10-03T21:32:44Z</time>
      </trkpt>
      <trkpt lat="47.08062" lon="-1.36576">
        <ele>44</ele>
        <time>2025-10-03T21:32:51Z</time>
      </trkpt>
      <trkpt lat="47.08043" lon="-1.36586">
        <ele>43</ele>
        <time>2025-10-03T21:32:56Z</time>
      </trkpt>
      <trkpt lat="47.08023" lon="-1.36593">
        <ele>43</ele>
        <time>2025-10-03T21:33:01Z</time>
      </trkpt>
      <trkpt lat="47.07926" lon="-1.36621">
        <ele>44</ele>
        <time>2025-10-03T21:33:24Z</time>
      </trkpt>
      <trkpt lat="47.07908" lon="-1.36628">
        <ele>44</ele>
        <time>2025-10-03T21:33:28Z</time>
      </trkpt>
      <trkpt lat="47.07893" lon="-1.36637">
        <ele>44</ele>
        <time>2025-10-03T21:33:32Z</time>
      </trkpt>
      <trkpt lat="47.07883" lon="-1.36646">
        <ele>43</ele>
        <time>2025-10-03T21:33:35Z</time>
      </trkpt>
      <trkpt lat="47.07826" lon="-1.36681">
        <ele>41</ele>
        <time>2025-10-03T21:33:49Z</time>
      </trkpt>
      <trkpt lat="47.0778" lon="-1.36714">
        <ele>40</ele>
        <time>2025-10-03T21:34:01Z</time>
      </trkpt>
      <trkpt lat="47.07776" lon="-1.36705">
        <ele>40</ele>
        <time>2025-10-03T21:34:03Z</time>
      </trkpt>
      <trkpt lat="47.07761" lon="-1.36682">
        <ele>41</ele>
        <time>2025-10-03T21:34:08Z</time>
      </trkpt>
      <trkpt lat="47.07756" lon="-1.36674">
        <ele>41</ele>
        <time>2025-10-03T21:34:09Z</time>
      </trkpt>
      <trkpt lat="47.07751" lon="-1.36669">
        <ele>41</ele>
        <time>2025-10-03T21:34:11Z</time>
      </trkpt>
      <trkpt lat="47.07724" lon="-1.36649">
        <ele>42</ele>
        <time>2025-10-03T21:34:18Z</time>
      </trkpt>
      <trkpt lat="47.07702" lon="-1.36633">
        <ele>42</ele>
        <time>2025-10-03T21:34:24Z</time>
      </trkpt>
      <trkpt lat="47.07698" lon="-1.36631">
        <ele>42</ele>
        <time>2025-10-03T21:34:25Z</time>
      </trkpt>
      <trkpt lat="47.07687" lon="-1.36624">
        <ele>42</ele>
        <time>2025-10-03T21:34:27Z</time>
      </trkpt>
      <trkpt lat="47.07681" lon="-1.36623">
        <ele>42</ele>
        <time>2025-10-03T21:34:29Z</time>
      </trkpt>
      <trkpt lat="47.07674" lon="-1.36623">
        <ele>42</ele>
        <time>2025-10-03T21:34:30Z</time>
      </trkpt>
      <trkpt lat="47.07603" lon="-1.36621">
        <ele>41</ele>
        <time>2025-10-03T21:34:47Z</time>
      </trkpt>
      <trkpt lat="47.07547" lon="-1.3662">
        <ele>40</ele>
        <time>2025-10-03T21:35:00Z</time>
      </trkpt>
      <trkpt lat="47.07535" lon="-1.36616">
        <ele>39</ele>
        <time>2025-10-03T21:35:03Z</time>
      </trkpt>
      <trkpt lat="47.07522" lon="-1.36612">
        <ele>39</ele>
        <time>2025-10-03T21:35:06Z</time>
      </trkpt>
      <trkpt lat="47.0751" lon="-1.36602">
        <ele>39</ele>
        <time>2025-10-03T21:35:09Z</time>
      </trkpt>
      <trkpt lat="47.07505" lon="-1.36596">
        <ele>39</ele>
        <time>2025-10-03T21:35:11Z</time>
      </trkpt>
      <trkpt lat="47.07504" lon="-1.36594">
        <ele>39</ele>
        <time>2025-10-03T21:35:11Z</time>
      </trkpt>
      <trkpt lat="47.07495" lon="-1.36591">
        <ele>39</ele>
        <time>2025-10-03T21:35:13Z</time>
      </trkpt>
      <trkpt lat="47.07487" lon="-1.3659">
        <ele>39</ele>
        <time>2025-10-03T21:35:15Z</time>
      </trkpt>
      <trkpt lat="47.07427" lon="-1.3655">
        <ele>41</ele>
        <time>2025-10-03T21:35:31Z</time>
      </trkpt>
      <trkpt lat="47.07398" lon="-1.36534">
        <ele>41</ele>
        <time>2025-10-03T21:35:38Z</time>
      </trkpt>
      <trkpt lat="47.07384" lon="-1.3653">
        <ele>41</ele>
        <time>2025-10-03T21:35:41Z</time>
      </trkpt>
      <trkpt lat="47.07371" lon="-1.36528">
        <ele>42</ele>
        <time>2025-10-03T21:35:44Z</time>
      </trkpt>
      <trkpt lat="47.07346" lon="-1.3653">
        <ele>42</ele>
        <time>2025-10-03T21:35:50Z</time>
      </trkpt>
      <trkpt lat="47.07311" lon="-1.36538">
        <ele>42</ele>
        <time>2025-10-03T21:35:58Z</time>
      </trkpt>
      <trkpt lat="47.07253" lon="-1.36548">
        <ele>42</ele>
        <time>2025-10-03T21:36:12Z</time>
      </trkpt>
      <trkpt lat="47.07235" lon="-1.36548">
        <ele>42</ele>
        <time>2025-10-03T21:36:16Z</time>
      </trkpt>
      <trkpt lat="47.07219" lon="-1.36547">
        <ele>42</ele>
        <time>2025-10-03T21:36:20Z</time>
      </trkpt>
      <trkpt lat="47.07202" lon="-1.36544">
        <ele>42</ele>
        <time>2025-10-03T21:36:24Z</time>
      </trkpt>
      <trkpt lat="47.0717" lon="-1.36534">
        <ele>43</ele>
        <time>2025-10-03T21:36:32Z</time>
      </trkpt>
      <trkpt lat="47.07157" lon="-1.36528">
        <ele>43</ele>
        <time>2025-10-03T21:36:35Z</time>
      </trkpt>
      <trkpt lat="47.07136" lon="-1.36516">
        <ele>42</ele>
        <time>2025-10-03T21:36:40Z</time>
      </trkpt>
      <trkpt lat="47.07094" lon="-1.36486">
        <ele>41</ele>
        <time>2025-10-03T21:36:51Z</time>
      </trkpt>
      <trkpt lat="47.07" lon="-1.36413">
        <ele>44</ele>
        <time>2025-10-03T21:37:16Z</time>
      </trkpt>
      <trkpt lat="47.06878" lon="-1.36324">
        <ele>45</ele>
        <time>2025-10-03T21:37:48Z</time>
      </trkpt>
      <trkpt lat="47.06822" lon="-1.36282">
        <ele>44</ele>
        <time>2025-10-03T21:38:02Z</time>
      </trkpt>
      <trkpt lat="47.0678" lon="-1.36255">
        <ele>42</ele>
        <time>2025-10-03T21:38:13Z</time>
      </trkpt>
      <trkpt lat="47.06768" lon="-1.3625">
        <ele>42</ele>
        <time>2025-10-03T21:38:16Z</time>
      </trkpt>
      <trkpt lat="47.06753" lon="-1.36247">
        <ele>42</ele>
        <time>2025-10-03T21:38:19Z</time>
      </trkpt>
      <trkpt lat="47.06731" lon="-1.3625">
        <ele>42</ele>
        <time>2025-10-03T21:38:25Z</time>
      </trkpt>
      <trkpt lat="47.06713" lon="-1.36254">
        <ele>43</ele>
        <time>2025-10-03T21:38:29Z</time>
      </trkpt>
      <trkpt lat="47.06687" lon="-1.36257">
        <ele>43</ele>
        <time>2025-10-03T21:38:35Z</time>
      </trkpt>
      <trkpt lat="47.06669" lon="-1.36255">
        <ele>43</ele>
        <time>2025-10-03T21:38:39Z</time>
      </trkpt>
      <trkpt lat="47.06648" lon="-1.36248">
        <ele>43</ele>
        <time>2025-10-03T21:38:44Z</time>
      </trkpt>
      <trkpt lat="47.0655" lon="-1.36208">
        <ele>40</ele>
        <time>2025-10-03T21:39:08Z</time>
      </trkpt>
      <trkpt lat="47.06539" lon="-1.36205">
        <ele>40</ele>
        <time>2025-10-03T21:39:11Z</time>
      </trkpt>
      <trkpt lat="47.0652" lon="-1.36205">
        <ele>40</ele>
        <time>2025-10-03T21:39:15Z</time>
      </trkpt>
      <trkpt lat="47.06505" lon="-1.36214">
        <ele>40</ele>
        <time>2025-10-03T21:39:19Z</time>
      </trkpt>
      <trkpt lat="47.06488" lon="-1.36231">
        <ele>40</ele>
        <time>2025-10-03T21:39:24Z</time>
      </trkpt>
      <trkpt lat="47.06466" lon="-1.36253">
        <ele>40</ele>
        <time>2025-10-03T21:39:30Z</time>
      </trkpt>
      <trkpt lat="47.06438" lon="-1.36282">
        <ele>39</ele>
        <time>2025-10-03T21:39:38Z</time>
      </trkpt>
      <trkpt lat="47.0643" lon="-1.36291">
        <ele>39</ele>
        <time>2025-10-03T21:39:40Z</time>
      </trkpt>
      <trkpt lat="47.0642" lon="-1.363">
        <ele>39</ele>
        <time>2025-10-03T21:39:43Z</time>
      </trkpt>
      <trkpt lat="47.06409" lon="-1.36306">
        <ele>39</ele>
        <time>2025-10-03T21:39:46Z</time>
      </trkpt>
      <trkpt lat="47.06373" lon="-1.3631">
        <ele>39</ele>
        <time>2025-10-03T21:39:54Z</time>
      </trkpt>
      <trkpt lat="47.05969" lon="-1.36333">
        <ele>38</ele>
        <time>2025-10-03T21:41:28Z</time>
      </trkpt>
      <trkpt lat="47.05863" lon="-1.36342">
        <ele>33</ele>
        <time>2025-10-03T21:41:53Z</time>
      </trkpt>
      <trkpt lat="47.05851" lon="-1.36343">
        <ele>33</ele>
        <time>2025-10-03T21:41:56Z</time>
      </trkpt>
      <trkpt lat="47.05841" lon="-1.36341">
        <ele>32</ele>
        <time>2025-10-03T21:41:58Z</time>
      </trkpt>
      <trkpt lat="47.05839" lon="-1.36339">
        <ele>32</ele>
        <time>2025-10-03T21:41:59Z</time>
      </trkpt>
      <trkpt lat="47.0583" lon="-1.36357">
        <ele>32</ele>
        <time>2025-10-03T21:42:03Z</time>
      </trkpt>
      <trkpt lat="47.05793" lon="-1.36425">
        <ele>31</ele>
        <time>2025-10-03T21:42:16Z</time>
      </trkpt>
      <trkpt lat="47.05775" lon="-1.36461">
        <ele>31</ele>
        <time>2025-10-03T21:42:24Z</time>
      </trkpt>
      <trkpt lat="47.05768" lon="-1.36476">
        <ele>31</ele>
        <time>2025-10-03T21:42:26Z</time>
      </trkpt>
      <trkpt lat="47.05763" lon="-1.36493">
        <ele>30</ele>
        <time>2025-10-03T21:42:29Z</time>
      </trkpt>
      <trkpt lat="47.05757" lon="-1.36512">
        <ele>30</ele>
        <time>2025-10-03T21:42:33Z</time>
      </trkpt>
      <trkpt lat="47.05726" lon="-1.36663">
        <ele>27</ele>
        <time>2025-10-03T21:42:58Z</time>
      </trkpt>
      <trkpt lat="47.05716" lon="-1.36723">
        <ele>25</ele>
        <time>2025-10-03T21:43:08Z</time>
      </trkpt>
      <trkpt lat="47.05709" lon="-1.36759">
        <ele>23</ele>
        <time>2025-10-03T21:43:14Z</time>
      </trkpt>
      <trkpt lat="47.05701" lon="-1.368">
        <ele>23</ele>
        <time>2025-10-03T21:43:20Z</time>
      </trkpt>
      <trkpt lat="47.05698" lon="-1.36812">
        <ele>22</ele>
        <time>2025-10-03T21:43:22Z</time>
      </trkpt>
      <trkpt lat="47.05691" lon="-1.36832">
        <ele>22</ele>
        <time>2025-10-03T21:43:26Z</time>
      </trkpt>
      <trkpt lat="47.05682" lon="-1.36848">
        <ele>22</ele>
        <time>2025-10-03T21:43:29Z</time>
      </trkpt>
      <trkpt lat="47.05663" lon="-1.36872">
        <ele>22</ele>
        <time>2025-10-03T21:43:35Z</time>
      </trkpt>
      <trkpt lat="47.05654" lon="-1.36883">
        <ele>22</ele>
        <time>2025-10-03T21:43:38Z</time>
      </trkpt>
      <trkpt lat="47.05648" lon="-1.3689">
        <ele>22</ele>
        <time>2025-10-03T21:43:40Z</time>
      </trkpt>
      <trkpt lat="47.05584" lon="-1.36967">
        <ele>23</ele>
        <time>2025-10-03T21:43:59Z</time>
      </trkpt>
      <trkpt lat="47.05563" lon="-1.36991">
        <ele>22</ele>
        <time>2025-10-03T21:44:05Z</time>
      </trkpt>
      <trkpt lat="47.05535" lon="-1.37025">
        <ele>21</ele>
        <time>2025-10-03T21:44:14Z</time>
      </trkpt>
      <trkpt lat="47.05532" lon="-1.3703">
        <ele>21</ele>
        <time>2025-10-03T21:44:15Z</time>
      </trkpt>
      <trkpt lat="47.05524" lon="-1.37041">
        <ele>21</ele>
        <time>2025-10-03T21:44:17Z</time>
      </trkpt>
      <trkpt lat="47.0557" lon="-1.37098">
        <ele>20</ele>
        <time>2025-10-03T21:44:31Z</time>
      </trkpt>
      <trkpt lat="47.05594" lon="-1.37125">
        <ele>21</ele>
        <time>2025-10-03T21:44:38Z</time>
      </trkpt>
      <trkpt lat="47.05634" lon="-1.37174">
        <ele>25</ele>
        <time>2025-10-03T21:44:51Z</time>
      </trkpt>
      <trkpt lat="47.05627" lon="-1.37212">
        <ele>25</ele>
        <time>2025-10-03T21:44:57Z</time>
      </trkpt>
      <trkpt lat="47.05626" lon="-1.37224">
        <ele>25</ele>
        <time>2025-10-03T21:44:59Z</time>
      </trkpt>
      <trkpt lat="47.05628" lon="-1.37249">
        <ele>26</ele>
        <time>2025-10-03T21:45:03Z</time>
      </trkpt>
      <trkpt lat="47.05631" lon="-1.37268">
        <ele>26</ele>
        <time>2025-10-03T21:45:06Z</time>
      </trkpt>
      <trkpt lat="47.05635" lon="-1.373">
        <ele>27</ele>
        <time>2025-10-03T21:45:11Z</time>
      </trkpt>
      <trkpt lat="47.05636" lon="-1.37327">
        <ele>28</ele>
        <time>2025-10-03T21:45:15Z</time>
      </trkpt>
      <trkpt lat="47.05663" lon="-1.37343">
        <ele>31</ele>
        <time>2025-10-03T21:45:22Z</time>
      </trkpt>
      <trkpt lat="47.05656" lon="-1.37366">
        <ele>30</ele>
        <time>2025-10-03T21:45:26Z</time>
      </trkpt>
      <trkpt lat="47.05654" lon="-1.37374">
        <ele>30</ele>
        <time>2025-10-03T21:45:28Z</time>
      </trkpt>
      <trkpt lat="47.0565" lon="-1.37387">
        <ele>30</ele>
        <time>2025-10-03T21:45:30Z</time>
      </trkpt>
      <trkpt lat="47.05631" lon="-1.37451">
        <ele>30</ele>
        <time>2025-10-03T21:45:41Z</time>
      </trkpt>
      <trkpt lat="47.05629" lon="-1.3745">
        <ele>30</ele>
        <time>2025-10-03T21:45:41Z</time>
      </trkpt>
      <trkpt lat="47.05621" lon="-1.37451">
        <ele>30</ele>
        <time>2025-10-03T21:45:43Z</time>
      </trkpt>
      <trkpt lat="47.05583" lon="-1.37485">
        <ele>31</ele>
        <time>2025-10-03T21:45:54Z</time>
      </trkpt>
      <trkpt lat="47.05567" lon="-1.37505">
        <ele>33</ele>
        <time>2025-10-03T21:45:59Z</time>
      </trkpt>
      <trkpt lat="47.0555" lon="-1.37526">
        <ele>35</ele>
        <time>2025-10-03T21:46:04Z</time>
      </trkpt>
      <trkpt lat="47.05535" lon="-1.37543">
        <ele>36</ele>
        <time>2025-10-03T21:46:08Z</time>
      </trkpt>
      <trkpt lat="47.0553" lon="-1.37552">
        <ele>37</ele>
        <time>2025-10-03T21:46:10Z</time>
      </trkpt>
      <trkpt lat="47.05529" lon="-1.37556">
        <ele>37</ele>
        <time>2025-10-03T21:46:11Z</time>
      </trkpt>
      <trkpt lat="47.05529" lon="-1.37569">
        <ele>38</ele>
        <time>2025-10-03T21:46:13Z</time>
      </trkpt>
      <trkpt lat="47.05529" lon="-1.37585">
        <ele>39</ele>
        <time>2025-10-03T21:46:15Z</time>
      </trkpt>
      <trkpt lat="47.05527" lon="-1.376">
        <ele>39</ele>
        <time>2025-10-03T21:46:18Z</time>
      </trkpt>
      <trkpt lat="47.05523" lon="-1.37613">
        <ele>39</ele>
        <time>2025-10-03T21:46:20Z</time>
      </trkpt>
      <trkpt lat="47.05515" lon="-1.37605">
        <ele>39</ele>
        <time>2025-10-03T21:46:22Z</time>
      </trkpt>
      <trkpt lat="47.05507" lon="-1.37599">
        <ele>40</ele>
        <time>2025-10-03T21:46:24Z</time>
      </trkpt>
      <trkpt lat="47.05487" lon="-1.37643">
        <ele>40</ele>
        <time>2025-10-03T21:46:33Z</time>
      </trkpt>
      <trkpt lat="47.05508" lon="-1.37668">
        <ele>40</ele>
        <time>2025-10-03T21:46:39Z</time>
      </trkpt>
      <trkpt lat="47.05499" lon="-1.37686">
        <ele>40</ele>
        <time>2025-10-03T21:46:43Z</time>
      </trkpt>
      <trkpt lat="47.05517" lon="-1.37713">
        <ele>39</ele>
        <time>2025-10-03T21:46:49Z</time>
      </trkpt>
      <trkpt lat="47.055" lon="-1.37735">
        <ele>39</ele>
        <time>2025-10-03T21:46:54Z</time>
      </trkpt>
      <trkpt lat="47.05491" lon="-1.37743">
        <ele>39</ele>
        <time>2025-10-03T21:46:56Z</time>
      </trkpt>
      <trkpt lat="47.05483" lon="-1.3775">
        <ele>39</ele>
        <time>2025-10-03T21:46:59Z</time>
      </trkpt>
      <trkpt lat="47.05434" lon="-1.37789">
        <ele>38</ele>
        <time>2025-10-03T21:47:12Z</time>
      </trkpt>
      <trkpt lat="47.05417" lon="-1.37807">
        <ele>37</ele>
        <time>2025-10-03T21:47:17Z</time>
      </trkpt>
      <trkpt lat="47.05387" lon="-1.37843">
        <ele>37</ele>
        <time>2025-10-03T21:47:26Z</time>
      </trkpt>
      <trkpt lat="47.0537" lon="-1.37861">
        <ele>37</ele>
        <time>2025-10-03T21:47:30Z</time>
      </trkpt>
      <trkpt lat="47.05384" lon="-1.37884">
        <ele>37</ele>
        <time>2025-10-03T21:47:35Z</time>
      </trkpt>
      <trkpt lat="47.05412" lon="-1.37936">
        <ele>37</ele>
        <time>2025-10-03T21:47:46Z</time>
      </trkpt>
      <trkpt lat="47.054" lon="-1.37942">
        <ele>37</ele>
        <time>2025-10-03T21:47:49Z</time>
      </trkpt>
      <trkpt lat="47.05378" lon="-1.37956">
        <ele>37</ele>
        <time>2025-10-03T21:47:54Z</time>
      </trkpt>
      <trkpt lat="47.0536" lon="-1.3797">
        <ele>37</ele>
        <time>2025-10-03T21:47:59Z</time>
      </trkpt>
      <trkpt lat="47.05341" lon="-1.37995">
        <ele>38</ele>
        <time>2025-10-03T21:48:05Z</time>
      </trkpt>
      <trkpt lat="47.05331" lon="-1.38015">
        <ele>38</ele>
        <time>2025-10-03T21:48:09Z</time>
      </trkpt>
      <trkpt lat="47.05314" lon="-1.38059">
        <ele>38</ele>
        <time>2025-10-03T21:48:17Z</time>
      </trkpt>
      <trkpt lat="47.05257" lon="-1.38171">
        <ele>37</ele>
        <time>2025-10-03T21:48:39Z</time>
      </trkpt>
      <trkpt lat="47.0524" lon="-1.38194">
        <ele>36</ele>
        <time>2025-10-03T21:48:45Z</time>
      </trkpt>
      <trkpt lat="47.05228" lon="-1.38214">
        <ele>36</ele>
        <time>2025-10-03T21:48:49Z</time>
      </trkpt>
      <trkpt lat="47.0521" lon="-1.38246">
        <ele>36</ele>
        <time>2025-10-03T21:48:56Z</time>
      </trkpt>
      <trkpt lat="47.05206" lon="-1.38257">
        <ele>37</ele>
        <time>2025-10-03T21:48:58Z</time>
      </trkpt>
      <trkpt lat="47.052" lon="-1.38274">
        <ele>37</ele>
        <time>2025-10-03T21:49:01Z</time>
      </trkpt>
      <trkpt lat="47.05195" lon="-1.38281">
        <ele>37</ele>
        <time>2025-10-03T21:49:02Z</time>
      </trkpt>
      <trkpt lat="47.0519" lon="-1.38295">
        <ele>37</ele>
        <time>2025-10-03T21:49:05Z</time>
      </trkpt>
      <trkpt lat="47.05188" lon="-1.38295">
        <ele>37</ele>
        <time>2025-10-03T21:49:05Z</time>
      </trkpt>
      <trkpt lat="47.05181" lon="-1.38315">
        <ele>37</ele>
        <time>2025-10-03T21:49:09Z</time>
      </trkpt>
      <trkpt lat="47.05175" lon="-1.38331">
        <ele>37</ele>
        <time>2025-10-03T21:49:12Z</time>
      </trkpt>
      <trkpt lat="47.05166" lon="-1.38345">
        <ele>37</ele>
        <time>2025-10-03T21:49:15Z</time>
      </trkpt>
      <trkpt lat="47.05162" lon="-1.3835">
        <ele>36</ele>
        <time>2025-10-03T21:49:16Z</time>
      </trkpt>
      <trkpt lat="47.05158" lon="-1.38351">
        <ele>36</ele>
        <time>2025-10-03T21:49:17Z</time>
      </trkpt>
      <trkpt lat="47.05156" lon="-1.3835">
        <ele>36</ele>
        <time>2025-10-03T21:49:17Z</time>
      </trkpt>
      <trkpt lat="47.05152" lon="-1.38348">
        <ele>36</ele>
        <time>2025-10-03T21:49:18Z</time>
      </trkpt>
      <trkpt lat="47.05146" lon="-1.38366">
        <ele>36</ele>
        <time>2025-10-03T21:49:22Z</time>
      </trkpt>
      <trkpt lat="47.05127" lon="-1.38408">
        <ele>35</ele>
        <time>2025-10-03T21:49:30Z</time>
      </trkpt>
      <trkpt lat="47.05116" lon="-1.38427">
        <ele>35</ele>
        <time>2025-10-03T21:49:34Z</time>
      </trkpt>
      <trkpt lat="47.05103" lon="-1.38446">
        <ele>36</ele>
        <time>2025-10-03T21:49:38Z</time>
      </trkpt>
      <trkpt lat="47.05086" lon="-1.38467">
        <ele>37</ele>
        <time>2025-10-03T21:49:43Z</time>
      </trkpt>
      <trkpt lat="47.05019" lon="-1.38547">
        <ele>36</ele>
        <time>2025-10-03T21:50:03Z</time>
      </trkpt>
      <trkpt lat="47.05003" lon="-1.38572">
        <ele>36</ele>
        <time>2025-10-03T21:50:09Z</time>
      </trkpt>
      <trkpt lat="47.04999" lon="-1.38582">
        <ele>36</ele>
        <time>2025-10-03T21:50:11Z</time>
      </trkpt>
      <trkpt lat="47.04994" lon="-1.38595">
        <ele>36</ele>
        <time>2025-10-03T21:50:13Z</time>
      </trkpt>
      <trkpt lat="47.04989" lon="-1.38622">
        <ele>36</ele>
        <time>2025-10-03T21:50:17Z</time>
      </trkpt>
      <trkpt lat="47.04967" lon="-1.38783">
        <ele>39</ele>
        <time>2025-10-03T21:50:44Z</time>
      </trkpt>
      <trkpt lat="47.04962" lon="-1.38813">
        <ele>40</ele>
        <time>2025-10-03T21:50:48Z</time>
      </trkpt>
      <trkpt lat="47.04958" lon="-1.38832">
        <ele>40</ele>
        <time>2025-10-03T21:50:52Z</time>
      </trkpt>
      <trkpt lat="47.04952" lon="-1.38848">
        <ele>40</ele>
        <time>2025-10-03T21:50:55Z</time>
      </trkpt>
      <trkpt lat="47.04942" lon="-1.38867">
        <ele>40</ele>
        <time>2025-10-03T21:50:58Z</time>
      </trkpt>
      <trkpt lat="47.04929" lon="-1.38884">
        <ele>40</ele>
        <time>2025-10-03T21:51:02Z</time>
      </trkpt>
      <trkpt lat="47.04918" lon="-1.38896">
        <ele>40</ele>
        <time>2025-10-03T21:51:06Z</time>
      </trkpt>
      <trkpt lat="47.0476" lon="-1.3905">
        <ele>44</ele>
        <time>2025-10-03T21:51:50Z</time>
      </trkpt>
      <trkpt lat="47.04713" lon="-1.39097">
        <ele>45</ele>
        <time>2025-10-03T21:52:03Z</time>
      </trkpt>
      <trkpt lat="47.047" lon="-1.39105">
        <ele>45</ele>
        <time>2025-10-03T21:52:07Z</time>
      </trkpt>
      <trkpt lat="47.04682" lon="-1.3911">
        <ele>46</ele>
        <time>2025-10-03T21:52:11Z</time>
      </trkpt>
      <trkpt lat="47.04604" lon="-1.39117">
        <ele>46</ele>
        <time>2025-10-03T21:52:29Z</time>
      </trkpt>
      <trkpt lat="47.04582" lon="-1.39123">
        <ele>46</ele>
        <time>2025-10-03T21:52:34Z</time>
      </trkpt>
      <trkpt lat="47.0456" lon="-1.39132">
        <ele>45</ele>
        <time>2025-10-03T21:52:40Z</time>
      </trkpt>
      <trkpt lat="47.04523" lon="-1.39158">
        <ele>44</ele>
        <time>2025-10-03T21:52:49Z</time>
      </trkpt>
      <trkpt lat="47.04502" lon="-1.39181">
        <ele>44</ele>
        <time>2025-10-03T21:52:55Z</time>
      </trkpt>
      <trkpt lat="47.04493" lon="-1.39192">
        <ele>44</ele>
        <time>2025-10-03T21:52:58Z</time>
      </trkpt>
      <trkpt lat="47.04487" lon="-1.39201">
        <ele>44</ele>
        <time>2025-10-03T21:53:00Z</time>
      </trkpt>
      <trkpt lat="47.04467" lon="-1.39242">
        <ele>44</ele>
        <time>2025-10-03T21:53:08Z</time>
      </trkpt>
      <trkpt lat="47.04453" lon="-1.39265">
        <ele>45</ele>
        <time>2025-10-03T21:53:13Z</time>
      </trkpt>
      <trkpt lat="47.04438" lon="-1.3928">
        <ele>45</ele>
        <time>2025-10-03T21:53:17Z</time>
      </trkpt>
      <trkpt lat="47.04355" lon="-1.39341">
        <ele>45</ele>
        <time>2025-10-03T21:53:39Z</time>
      </trkpt>
      <trkpt lat="47.04339" lon="-1.39353">
        <ele>45</ele>
        <time>2025-10-03T21:53:43Z</time>
      </trkpt>
      <trkpt lat="47.04327" lon="-1.39363">
        <ele>45</ele>
        <time>2025-10-03T21:53:46Z</time>
      </trkpt>
      <trkpt lat="47.04304" lon="-1.39386">
        <ele>46</ele>
        <time>2025-10-03T21:53:53Z</time>
      </trkpt>
      <trkpt lat="47.04251" lon="-1.39455">
        <ele>48</ele>
        <time>2025-10-03T21:54:09Z</time>
      </trkpt>
      <trkpt lat="47.04239" lon="-1.39467">
        <ele>48</ele>
        <time>2025-10-03T21:54:13Z</time>
      </trkpt>
      <trkpt lat="47.04205" lon="-1.39494">
        <ele>49</ele>
        <time>2025-10-03T21:54:22Z</time>
      </trkpt>
      <trkpt lat="47.04057" lon="-1.39598">
        <ele>52</ele>
        <time>2025-10-03T21:55:00Z</time>
      </trkpt>
      <trkpt lat="47.03991" lon="-1.39646">
        <ele>53</ele>
        <time>2025-10-03T21:55:17Z</time>
      </trkpt>
      <trkpt lat="47.0396" lon="-1.39674">
        <ele>53</ele>
        <time>2025-10-03T21:55:26Z</time>
      </trkpt>
      <trkpt lat="47.03933" lon="-1.39703">
        <ele>52</ele>
        <time>2025-10-03T21:55:34Z</time>
      </trkpt>
      <trkpt lat="47.03916" lon="-1.39724">
        <ele>52</ele>
        <time>2025-10-03T21:55:39Z</time>
      </trkpt>
      <trkpt lat="47.03862" lon="-1.39803">
        <ele>53</ele>
        <time>2025-10-03T21:55:57Z</time>
      </trkpt>
      <trkpt lat="47.03835" lon="-1.39838">
        <ele>54</ele>
        <time>2025-10-03T21:56:05Z</time>
      </trkpt>
      <trkpt lat="47.03815" lon="-1.39859">
        <ele>53</ele>
        <time>2025-10-03T21:56:11Z</time>
      </trkpt>
      <trkpt lat="47.03796" lon="-1.39875">
        <ele>53</ele>
        <time>2025-10-03T21:56:16Z</time>
      </trkpt>
      <trkpt lat="47.03771" lon="-1.39892">
        <ele>53</ele>
        <time>2025-10-03T21:56:22Z</time>
      </trkpt>
      <trkpt lat="47.03745" lon="-1.39905">
        <ele>53</ele>
        <time>2025-10-03T21:56:29Z</time>
      </trkpt>
      <trkpt lat="47.03726" lon="-1.39912">
        <ele>53</ele>
        <time>2025-10-03T21:56:33Z</time>
      </trkpt>
      <trkpt lat="47.03676" lon="-1.39924">
        <ele>52</ele>
        <time>2025-10-03T21:56:45Z</time>
      </trkpt>
      <trkpt lat="47.03631" lon="-1.39942">
        <ele>51</ele>
        <time>2025-10-03T21:56:56Z</time>
      </trkpt>
      <trkpt lat="47.03584" lon="-1.39971">
        <ele>50</ele>
        <time>2025-10-03T21:57:08Z</time>
      </trkpt>
      <trkpt lat="47.0355" lon="-1.39996">
        <ele>50</ele>
        <time>2025-10-03T21:57:17Z</time>
      </trkpt>
      <trkpt lat="47.03372" lon="-1.40145">
        <ele>48</ele>
        <time>2025-10-03T21:58:05Z</time>
      </trkpt>
      <trkpt lat="47.03303" lon="-1.40196">
        <ele>48</ele>
        <time>2025-10-03T21:58:23Z</time>
      </trkpt>
      <trkpt lat="47.03269" lon="-1.4022">
        <ele>48</ele>
        <time>2025-10-03T21:58:32Z</time>
      </trkpt>
      <trkpt lat="47.03246" lon="-1.40235">
        <ele>48</ele>
        <time>2025-10-03T21:58:37Z</time>
      </trkpt>
      <trkpt lat="47.03207" lon="-1.40265">
        <ele>47</ele>
        <time>2025-10-03T21:58:48Z</time>
      </trkpt>
      <trkpt lat="47.03173" lon="-1.40294">
        <ele>46</ele>
        <time>2025-10-03T21:58:57Z</time>
      </trkpt>
      <trkpt lat="47.03154" lon="-1.40311">
        <ele>46</ele>
        <time>2025-10-03T21:59:02Z</time>
      </trkpt>
      <trkpt lat="47.03132" lon="-1.40333">
        <ele>46</ele>
        <time>2025-10-03T21:59:08Z</time>
      </trkpt>
      <trkpt lat="47.03121" lon="-1.40344">
        <ele>46</ele>
        <time>2025-10-03T21:59:11Z</time>
      </trkpt>
      <trkpt lat="47.0311" lon="-1.40354">
        <ele>46</ele>
        <time>2025-10-03T21:59:14Z</time>
      </trkpt>
      <trkpt lat="47.03055" lon="-1.404">
        <ele>44</ele>
        <time>2025-10-03T21:59:29Z</time>
      </trkpt>
      <trkpt lat="47.0304" lon="-1.40411">
        <ele>44</ele>
        <time>2025-10-03T21:59:33Z</time>
      </trkpt>
      <trkpt lat="47.02976" lon="-1.40463">
        <ele>42</ele>
        <time>2025-10-03T21:59:50Z</time>
      </trkpt>
      <trkpt lat="47.02908" lon="-1.4052">
        <ele>42</ele>
        <time>2025-10-03T22:00:08Z</time>
      </trkpt>
      <trkpt lat="47.02887" lon="-1.40536">
        <ele>42</ele>
        <time>2025-10-03T22:00:14Z</time>
      </trkpt>
      <trkpt lat="47.02861" lon="-1.40553">
        <ele>42</ele>
        <time>2025-10-03T22:00:21Z</time>
      </trkpt>
      <trkpt lat="47.02832" lon="-1.40566">
        <ele>41</ele>
        <time>2025-10-03T22:00:28Z</time>
      </trkpt>
      <trkpt lat="47.02801" lon="-1.40574">
        <ele>41</ele>
        <time>2025-10-03T22:00:35Z</time>
      </trkpt>
      <trkpt lat="47.02753" lon="-1.40581">
        <ele>42</ele>
        <time>2025-10-03T22:00:46Z</time>
      </trkpt>
      <trkpt lat="47.02728" lon="-1.40586">
        <ele>42</ele>
        <time>2025-10-03T22:00:52Z</time>
      </trkpt>
      <trkpt lat="47.02698" lon="-1.40593">
        <ele>41</ele>
        <time>2025-10-03T22:00:59Z</time>
      </trkpt>
      <trkpt lat="47.02657" lon="-1.4061">
        <ele>41</ele>
        <time>2025-10-03T22:01:09Z</time>
      </trkpt>
      <trkpt lat="47.02618" lon="-1.40633">
        <ele>41</ele>
        <time>2025-10-03T22:01:19Z</time>
      </trkpt>
      <trkpt lat="47.02582" lon="-1.40661">
        <ele>41</ele>
        <time>2025-10-03T22:01:29Z</time>
      </trkpt>
      <trkpt lat="47.02532" lon="-1.40708">
        <ele>39</ele>
        <time>2025-10-03T22:01:42Z</time>
      </trkpt>
      <trkpt lat="47.02506" lon="-1.40735">
        <ele>38</ele>
        <time>2025-10-03T22:01:50Z</time>
      </trkpt>
      <trkpt lat="47.02483" lon="-1.40758">
        <ele>38</ele>
        <time>2025-10-03T22:01:56Z</time>
      </trkpt>
      <trkpt lat="47.02456" lon="-1.40787">
        <ele>37</ele>
        <time>2025-10-03T22:02:04Z</time>
      </trkpt>
      <trkpt lat="47.02446" lon="-1.40799">
        <ele>37</ele>
        <time>2025-10-03T22:02:07Z</time>
      </trkpt>
      <trkpt lat="47.02414" lon="-1.40847">
        <ele>37</ele>
        <time>2025-10-03T22:02:18Z</time>
      </trkpt>
      <trkpt lat="47.02403" lon="-1.40864">
        <ele>38</ele>
        <time>2025-10-03T22:02:22Z</time>
      </trkpt>
      <trkpt lat="47.024" lon="-1.40867">
        <ele>38</ele>
        <time>2025-10-03T22:02:23Z</time>
      </trkpt>
      <trkpt lat="47.02375" lon="-1.40892">
        <ele>38</ele>
        <time>2025-10-03T22:02:30Z</time>
      </trkpt>
      <trkpt lat="47.02358" lon="-1.40907">
        <ele>39</ele>
        <time>2025-10-03T22:02:34Z</time>
      </trkpt>
      <trkpt lat="47.02301" lon="-1.40959">
        <ele>38</ele>
        <time>2025-10-03T22:02:50Z</time>
      </trkpt>
      <trkpt lat="47.02288" lon="-1.40971">
        <ele>38</ele>
        <time>2025-10-03T22:02:53Z</time>
      </trkpt>
      <trkpt lat="47.02264" lon="-1.40992">
        <ele>38</ele>
        <time>2025-10-03T22:03:00Z</time>
      </trkpt>
      <trkpt lat="47.0221" lon="-1.41042">
        <ele>37</ele>
        <time>2025-10-03T22:03:15Z</time>
      </trkpt>
      <trkpt lat="47.02156" lon="-1.41091">
        <ele>36</ele>
        <time>2025-10-03T22:03:30Z</time>
      </trkpt>
      <trkpt lat="47.02135" lon="-1.41107">
        <ele>36</ele>
        <time>2025-10-03T22:03:35Z</time>
      </trkpt>
      <trkpt lat="47.02121" lon="-1.41116">
        <ele>36</ele>
        <time>2025-10-03T22:03:39Z</time>
      </trkpt>
      <trkpt lat="47.02028" lon="-1.41154">
        <ele>35</ele>
        <time>2025-10-03T22:04:01Z</time>
      </trkpt>
      <trkpt lat="47.01998" lon="-1.41168">
        <ele>36</ele>
        <time>2025-10-03T22:04:09Z</time>
      </trkpt>
      <trkpt lat="47.01979" lon="-1.41182">
        <ele>35</ele>
        <time>2025-10-03T22:04:14Z</time>
      </trkpt>
      <trkpt lat="47.01959" lon="-1.41199">
        <ele>34</ele>
        <time>2025-10-03T22:04:19Z</time>
      </trkpt>
      <trkpt lat="47.01919" lon="-1.41249">
        <ele>33</ele>
        <time>2025-10-03T22:04:31Z</time>
      </trkpt>
      <trkpt lat="47.01863" lon="-1.41325">
        <ele>31</ele>
        <time>2025-10-03T22:04:49Z</time>
      </trkpt>
      <trkpt lat="47.01832" lon="-1.41365">
        <ele>31</ele>
        <time>2025-10-03T22:04:59Z</time>
      </trkpt>
      <trkpt lat="47.01756" lon="-1.41462">
        <ele>30</ele>
        <time>2025-10-03T22:05:22Z</time>
      </trkpt>
      <trkpt lat="47.01717" lon="-1.41515">
        <ele>30</ele>
        <time>2025-10-03T22:05:35Z</time>
      </trkpt>
      <trkpt lat="47.01709" lon="-1.41529">
        <ele>29</ele>
        <time>2025-10-03T22:05:38Z</time>
      </trkpt>
      <trkpt lat="47.01699" lon="-1.41516">
        <ele>30</ele>
        <time>2025-10-03T22:05:41Z</time>
      </trkpt>
      <trkpt lat="47.01693" lon="-1.41527">
        <ele>29</ele>
        <time>2025-10-03T22:05:43Z</time>
      </trkpt>
      <trkpt lat="47.01686" lon="-1.41558">
        <ele>29</ele>
        <time>2025-10-03T22:05:48Z</time>
      </trkpt>
      <trkpt lat="47.01679" lon="-1.41634">
        <ele>28</ele>
        <time>2025-10-03T22:06:00Z</time>
      </trkpt>
      <trkpt lat="47.01648" lon="-1.41599">
        <ele>28</ele>
        <time>2025-10-03T22:06:10Z</time>
      </trkpt>
      <trkpt lat="47.01627" lon="-1.41574">
        <ele>27</ele>
        <time>2025-10-03T22:06:16Z</time>
      </trkpt>
      <trkpt lat="47.01556" lon="-1.41506">
        <ele>28</ele>
        <time>2025-10-03T22:06:36Z</time>
      </trkpt>
      <trkpt lat="47.01517" lon="-1.41469">
        <ele>29</ele>
        <time>2025-10-03T22:06:47Z</time>
      </trkpt>
      <trkpt lat="47.01453" lon="-1.41405">
        <ele>29</ele>
        <time>2025-10-03T22:07:05Z</time>
      </trkpt>
      <trkpt lat="47.01432" lon="-1.4139">
        <ele>29</ele>
        <time>2025-10-03T22:07:10Z</time>
      </trkpt>
      <trkpt lat="47.01384" lon="-1.41364">
        <ele>30</ele>
        <time>2025-10-03T22:07:22Z</time>
      </trkpt>
      <trkpt lat="47.01371" lon="-1.41354">
        <ele>30</ele>
        <time>2025-10-03T22:07:25Z</time>
      </trkpt>
      <trkpt lat="47.0136" lon="-1.41342">
        <ele>31</ele>
        <time>2025-10-03T22:07:29Z</time>
      </trkpt>
      <trkpt lat="47.01347" lon="-1.4132">
        <ele>31</ele>
        <time>2025-10-03T22:07:33Z</time>
      </trkpt>
      <trkpt lat="47.01272" lon="-1.41187">
        <ele>31</ele>
        <time>2025-10-03T22:08:01Z</time>
      </trkpt>
      <trkpt lat="47.01262" lon="-1.41174">
        <ele>31</ele>
        <time>2025-10-03T22:08:04Z</time>
      </trkpt>
      <trkpt lat="47.01257" lon="-1.41172">
        <ele>31</ele>
        <time>2025-10-03T22:08:05Z</time>
      </trkpt>
      <trkpt lat="47.01253" lon="-1.41173">
        <ele>31</ele>
        <time>2025-10-03T22:08:06Z</time>
      </trkpt>
      <trkpt lat="47.01247" lon="-1.41179">
        <ele>31</ele>
        <time>2025-10-03T22:08:08Z</time>
      </trkpt>
      <trkpt lat="47.0119" lon="-1.41408">
        <ele>28</ele>
        <time>2025-10-03T22:08:47Z</time>
      </trkpt>
      <trkpt lat="47.01169" lon="-1.41493">
        <ele>27</ele>
        <time>2025-10-03T22:09:01Z</time>
      </trkpt>
      <trkpt lat="47.01156" lon="-1.41547">
        <ele>27</ele>
        <time>2025-10-03T22:09:10Z</time>
      </trkpt>
      <trkpt lat="47.01151" lon="-1.4156">
        <ele>27</ele>
        <time>2025-10-03T22:09:13Z</time>
      </trkpt>
      <trkpt lat="47.01143" lon="-1.41575">
        <ele>27</ele>
        <time>2025-10-03T22:09:16Z</time>
      </trkpt>
      <trkpt lat="47.01133" lon="-1.41589">
        <ele>26</ele>
        <time>2025-10-03T22:09:19Z</time>
      </trkpt>
      <trkpt lat="47.01106" lon="-1.4162">
        <ele>26</ele>
        <time>2025-10-03T22:09:27Z</time>
      </trkpt>
      <trkpt lat="47.01096" lon="-1.41637">
        <ele>25</ele>
        <time>2025-10-03T22:09:30Z</time>
      </trkpt>
      <trkpt lat="47.0109" lon="-1.41653">
        <ele>25</ele>
        <time>2025-10-03T22:09:33Z</time>
      </trkpt>
      <trkpt lat="47.0107" lon="-1.41736">
        <ele>24</ele>
        <time>2025-10-03T22:09:47Z</time>
      </trkpt>
      <trkpt lat="47.01045" lon="-1.41839">
        <ele>24</ele>
        <time>2025-10-03T22:10:05Z</time>
      </trkpt>
      <trkpt lat="47.01037" lon="-1.41875">
        <ele>24</ele>
        <time>2025-10-03T22:10:11Z</time>
      </trkpt>
      <trkpt lat="47.01031" lon="-1.41892">
        <ele>24</ele>
        <time>2025-10-03T22:10:14Z</time>
      </trkpt>
      <trkpt lat="47.01018" lon="-1.41914">
        <ele>25</ele>
        <time>2025-10-03T22:10:18Z</time>
      </trkpt>
      <trkpt lat="47.01008" lon="-1.41925">
        <ele>25</ele>
        <time>2025-10-03T22:10:21Z</time>
      </trkpt>
      <trkpt lat="47.00992" lon="-1.41939">
        <ele>25</ele>
        <time>2025-10-03T22:10:26Z</time>
      </trkpt>
      <trkpt lat="47.0094" lon="-1.41983">
        <ele>25</ele>
        <time>2025-10-03T22:10:40Z</time>
      </trkpt>
      <trkpt lat="47.00889" lon="-1.42022">
        <ele>25</ele>
        <time>2025-10-03T22:10:53Z</time>
      </trkpt>
      <trkpt lat="47.00867" lon="-1.42035">
        <ele>26</ele>
        <time>2025-10-03T22:10:59Z</time>
      </trkpt>
      <trkpt lat="47.00789" lon="-1.42076">
        <ele>25</ele>
        <time>2025-10-03T22:11:18Z</time>
      </trkpt>
      <trkpt lat="47.00784" lon="-1.42078">
        <ele>25</ele>
        <time>2025-10-03T22:11:19Z</time>
      </trkpt>
      <trkpt lat="47.00769" lon="-1.42087">
        <ele>24</ele>
        <time>2025-10-03T22:11:23Z</time>
      </trkpt>
      <trkpt lat="47.00755" lon="-1.421">
        <ele>24</ele>
        <time>2025-10-03T22:11:27Z</time>
      </trkpt>
      <trkpt lat="47.00699" lon="-1.42023">
        <ele>23</ele>
        <time>2025-10-03T22:11:45Z</time>
      </trkpt>
      <trkpt lat="47.00681" lon="-1.42062">
        <ele>23</ele>
        <time>2025-10-03T22:11:52Z</time>
      </trkpt>
      <trkpt lat="47.00651" lon="-1.4203">
        <ele>23</ele>
        <time>2025-10-03T22:12:01Z</time>
      </trkpt>
      <trkpt lat="47.0064" lon="-1.42018">
        <ele>23</ele>
        <time>2025-10-03T22:12:04Z</time>
      </trkpt>
      <trkpt lat="47.00621" lon="-1.41995">
        <ele>23</ele>
        <time>2025-10-03T22:12:10Z</time>
      </trkpt>
      <trkpt lat="47.00584" lon="-1.41951">
        <ele>23</ele>
        <time>2025-10-03T22:12:21Z</time>
      </trkpt>
      <trkpt lat="47.00562" lon="-1.41927">
        <ele>23</ele>
        <time>2025-10-03T22:12:27Z</time>
      </trkpt>
      <trkpt lat="47.00563" lon="-1.41922">
        <ele>23</ele>
        <time>2025-10-03T22:12:28Z</time>
      </trkpt>
      <trkpt lat="47.00559" lon="-1.41893">
        <ele>23</ele>
        <time>2025-10-03T22:12:33Z</time>
      </trkpt>
      <trkpt lat="47.00555" lon="-1.41866">
        <ele>23</ele>
        <time>2025-10-03T22:12:37Z</time>
      </trkpt>
      <trkpt lat="47.00552" lon="-1.41858">
        <ele>23</ele>
        <time>2025-10-03T22:12:39Z</time>
      </trkpt>
      <trkpt lat="47.00543" lon="-1.41845">
        <ele>23</ele>
        <time>2025-10-03T22:12:42Z</time>
      </trkpt>
      <trkpt lat="47.00541" lon="-1.41839">
        <ele>23</ele>
        <time>2025-10-03T22:12:43Z</time>
      </trkpt>
      <trkpt lat="47.0054" lon="-1.41834">
        <ele>23</ele>
        <time>2025-10-03T22:12:44Z</time>
      </trkpt>
      <trkpt lat="47.00528" lon="-1.41837">
        <ele>23</ele>
        <time>2025-10-03T22:12:47Z</time>
      </trkpt>
      <trkpt lat="47.00498" lon="-1.41844">
        <ele>23</ele>
        <time>2025-10-03T22:12:54Z</time>
      </trkpt>
      <trkpt lat="47.00445" lon="-1.41853">
        <ele>24</ele>
        <time>2025-10-03T22:13:06Z</time>
      </trkpt>
      <trkpt lat="47.00423" lon="-1.41856">
        <ele>24</ele>
        <time>2025-10-03T22:13:11Z</time>
      </trkpt>
      <trkpt lat="47.00399" lon="-1.4186">
        <ele>24</ele>
        <time>2025-10-03T22:13:17Z</time>
      </trkpt>
      <trkpt lat="47.00374" lon="-1.41865">
        <ele>24</ele>
        <time>2025-10-03T22:13:23Z</time>
      </trkpt>
      <trkpt lat="47.00339" lon="-1.41878">
        <ele>24</ele>
        <time>2025-10-03T22:13:31Z</time>
      </trkpt>
      <trkpt lat="47.00313" lon="-1.4189">
        <ele>24</ele>
        <time>2025-10-03T22:13:38Z</time>
      </trkpt>
      <trkpt lat="47.0029" lon="-1.41901">
        <ele>25</ele>
        <time>2025-10-03T22:13:43Z</time>
      </trkpt>
      <trkpt lat="47.0026" lon="-1.4191">
        <ele>25</ele>
        <time>2025-10-03T22:13:50Z</time>
      </trkpt>
      <trkpt lat="47.00253" lon="-1.41911">
        <ele>25</ele>
        <time>2025-10-03T22:13:52Z</time>
      </trkpt>
      <trkpt lat="47.00204" lon="-1.41921">
        <ele>24</ele>
        <time>2025-10-03T22:14:04Z</time>
      </trkpt>
      <trkpt lat="47.00176" lon="-1.4193">
        <ele>24</ele>
        <time>2025-10-03T22:14:10Z</time>
      </trkpt>
      <trkpt lat="47.00166" lon="-1.41934">
        <ele>24</ele>
        <time>2025-10-03T22:14:13Z</time>
      </trkpt>
      <trkpt lat="47.00124" lon="-1.41958">
        <ele>24</ele>
        <time>2025-10-03T22:14:23Z</time>
      </trkpt>
      <trkpt lat="47.00104" lon="-1.41968">
        <ele>23</ele>
        <time>2025-10-03T22:14:28Z</time>
      </trkpt>
      <trkpt lat="47.0002" lon="-1.42002">
        <ele>24</ele>
        <time>2025-10-03T22:14:48Z</time>
      </trkpt>
      <trkpt lat="46.99994" lon="-1.42013">
        <ele>25</ele>
        <time>2025-10-03T22:14:55Z</time>
      </trkpt>
      <trkpt lat="46.99926" lon="-1.42049">
        <ele>23</ele>
        <time>2025-10-03T22:15:12Z</time>
      </trkpt>
      <trkpt lat="46.99916" lon="-1.42053">
        <ele>23</ele>
        <time>2025-10-03T22:15:14Z</time>
      </trkpt>
      <trkpt lat="46.99902" lon="-1.42056">
        <ele>23</ele>
        <time>2025-10-03T22:15:17Z</time>
      </trkpt>
      <trkpt lat="46.99865" lon="-1.42063">
        <ele>23</ele>
        <time>2025-10-03T22:15:26Z</time>
      </trkpt>
      <trkpt lat="46.99857" lon="-1.42067">
        <ele>23</ele>
        <time>2025-10-03T22:15:28Z</time>
      </trkpt>
      <trkpt lat="46.99851" lon="-1.42069">
        <ele>23</ele>
        <time>2025-10-03T22:15:30Z</time>
      </trkpt>
      <trkpt lat="46.99847" lon="-1.4207">
        <ele>23</ele>
        <time>2025-10-03T22:15:30Z</time>
      </trkpt>
      <trkpt lat="46.99831" lon="-1.4207">
        <ele>23</ele>
        <time>2025-10-03T22:15:34Z</time>
      </trkpt>
      <trkpt lat="46.99729" lon="-1.42064">
        <ele>24</ele>
        <time>2025-10-03T22:15:58Z</time>
      </trkpt>
      <trkpt lat="46.99229" lon="-1.42042">
        <ele>28</ele>
        <time>2025-10-03T22:17:55Z</time>
      </trkpt>
      <trkpt lat="46.99213" lon="-1.42041">
        <ele>28</ele>
        <time>2025-10-03T22:17:59Z</time>
      </trkpt>
      <trkpt lat="46.99206" lon="-1.42039">
        <ele>28</ele>
        <time>2025-10-03T22:18:00Z</time>
      </trkpt>
      <trkpt lat="46.992" lon="-1.42036">
        <ele>28</ele>
        <time>2025-10-03T22:18:02Z</time>
      </trkpt>
      <trkpt lat="46.99195" lon="-1.42032">
        <ele>28</ele>
        <time>2025-10-03T22:18:03Z</time>
      </trkpt>
      <trkpt lat="46.99192" lon="-1.42026">
        <ele>28</ele>
        <time>2025-10-03T22:18:04Z</time>
      </trkpt>
      <trkpt lat="46.99184" lon="-1.42029">
        <ele>28</ele>
        <time>2025-10-03T22:18:06Z</time>
      </trkpt>
      <trkpt lat="46.99119" lon="-1.42027">
        <ele>28</ele>
        <time>2025-10-03T22:18:21Z</time>
      </trkpt>
      <trkpt lat="46.99021" lon="-1.42023">
        <ele>27</ele>
        <time>2025-10-03T22:18:44Z</time>
      </trkpt>
      <trkpt lat="46.99006" lon="-1.4202">
        <ele>27</ele>
        <time>2025-10-03T22:18:48Z</time>
      </trkpt>
      <trkpt lat="46.98944" lon="-1.4211">
        <ele>25</ele>
        <time>2025-10-03T22:19:08Z</time>
      </trkpt>
      <trkpt lat="46.98901" lon="-1.42171">
        <ele>25</ele>
        <time>2025-10-03T22:19:22Z</time>
      </trkpt>
      <trkpt lat="46.98879" lon="-1.42201">
        <ele>25</ele>
        <time>2025-10-03T22:19:29Z</time>
      </trkpt>
      <trkpt lat="46.9887" lon="-1.4221">
        <ele>26</ele>
        <time>2025-10-03T22:19:32Z</time>
      </trkpt>
      <trkpt lat="46.98807" lon="-1.42272">
        <ele>28</ele>
        <time>2025-10-03T22:19:49Z</time>
      </trkpt>
      <trkpt lat="46.98779" lon="-1.42297">
        <ele>28</ele>
        <time>2025-10-03T22:19:57Z</time>
      </trkpt>
      <trkpt lat="46.98764" lon="-1.42307">
        <ele>29</ele>
        <time>2025-10-03T22:20:01Z</time>
      </trkpt>
      <trkpt lat="46.98754" lon="-1.42312">
        <ele>29</ele>
        <time>2025-10-03T22:20:03Z</time>
      </trkpt>
      <trkpt lat="46.98737" lon="-1.42317">
        <ele>29</ele>
        <time>2025-10-03T22:20:07Z</time>
      </trkpt>
      <trkpt lat="46.98657" lon="-1.4233">
        <ele>30</ele>
        <time>2025-10-03T22:20:26Z</time>
      </trkpt>
      <trkpt lat="46.98568" lon="-1.42344">
        <ele>28</ele>
        <time>2025-10-03T22:20:47Z</time>
      </trkpt>
      <trkpt lat="46.98529" lon="-1.42352">
        <ele>28</ele>
        <time>2025-10-03T22:20:56Z</time>
      </trkpt>
      <trkpt lat="46.9845" lon="-1.42386">
        <ele>28</ele>
        <time>2025-10-03T22:21:16Z</time>
      </trkpt>
      <trkpt lat="46.98425" lon="-1.42393">
        <ele>28</ele>
        <time>2025-10-03T22:21:22Z</time>
      </trkpt>
      <trkpt lat="46.98404" lon="-1.42398">
        <ele>28</ele>
        <time>2025-10-03T22:21:27Z</time>
      </trkpt>
      <trkpt lat="46.98226" lon="-1.42406">
        <ele>32</ele>
        <time>2025-10-03T22:22:08Z</time>
      </trkpt>
      <trkpt lat="46.98208" lon="-1.42408">
        <ele>32</ele>
        <time>2025-10-03T22:22:12Z</time>
      </trkpt>
      <trkpt lat="46.98183" lon="-1.42414">
        <ele>33</ele>
        <time>2025-10-03T22:22:18Z</time>
      </trkpt>
      <trkpt lat="46.98136" lon="-1.42443">
        <ele>32</ele>
        <time>2025-10-03T22:22:30Z</time>
      </trkpt>
      <trkpt lat="46.98095" lon="-1.42465">
        <ele>32</ele>
        <time>2025-10-03T22:22:40Z</time>
      </trkpt>
      <trkpt lat="46.98065" lon="-1.42484">
        <ele>33</ele>
        <time>2025-10-03T22:22:48Z</time>
      </trkpt>
      <trkpt lat="46.9805" lon="-1.42496">
        <ele>33</ele>
        <time>2025-10-03T22:22:52Z</time>
      </trkpt>
      <trkpt lat="46.97993" lon="-1.42554">
        <ele>31</ele>
        <time>2025-10-03T22:23:08Z</time>
      </trkpt>
      <trkpt lat="46.97975" lon="-1.42566">
        <ele>30</ele>
        <time>2025-10-03T22:23:13Z</time>
      </trkpt>
      <trkpt lat="46.97966" lon="-1.42569">
        <ele>30</ele>
        <time>2025-10-03T22:23:15Z</time>
      </trkpt>
      <trkpt lat="46.97953" lon="-1.42571">
        <ele>30</ele>
        <time>2025-10-03T22:23:18Z</time>
      </trkpt>
      <trkpt lat="46.97902" lon="-1.42554">
        <ele>31</ele>
        <time>2025-10-03T22:23:30Z</time>
      </trkpt>
      <trkpt lat="46.97821" lon="-1.42532">
        <ele>31</ele>
        <time>2025-10-03T22:23:49Z</time>
      </trkpt>
      <trkpt lat="46.97797" lon="-1.42528">
        <ele>31</ele>
        <time>2025-10-03T22:23:55Z</time>
      </trkpt>
      <trkpt lat="46.97784" lon="-1.42527">
        <ele>32</ele>
        <time>2025-10-03T22:23:58Z</time>
      </trkpt>
      <trkpt lat="46.9777" lon="-1.42528">
        <ele>32</ele>
        <time>2025-10-03T22:24:01Z</time>
      </trkpt>
      <trkpt lat="46.97709" lon="-1.42544">
        <ele>31</ele>
        <time>2025-10-03T22:24:16Z</time>
      </trkpt>
      <trkpt lat="46.97696" lon="-1.42544">
        <ele>31</ele>
        <time>2025-10-03T22:24:19Z</time>
      </trkpt>
      <trkpt lat="46.9768" lon="-1.42542">
        <ele>31</ele>
        <time>2025-10-03T22:24:23Z</time>
      </trkpt>
      <trkpt lat="46.97588" lon="-1.4252">
        <ele>31</ele>
        <time>2025-10-03T22:24:44Z</time>
      </trkpt>
      <trkpt lat="46.97577" lon="-1.42518">
        <ele>31</ele>
        <time>2025-10-03T22:24:47Z</time>
      </trkpt>
      <trkpt lat="46.97566" lon="-1.42519">
        <ele>31</ele>
        <time>2025-10-03T22:24:50Z</time>
      </trkpt>
      <trkpt lat="46.9755" lon="-1.42525">
        <ele>32</ele>
        <time>2025-10-03T22:24:53Z</time>
      </trkpt>
      <trkpt lat="46.97544" lon="-1.42529">
        <ele>32</ele>
        <time>2025-10-03T22:24:55Z</time>
      </trkpt>
      <trkpt lat="46.9753" lon="-1.42544">
        <ele>32</ele>
        <time>2025-10-03T22:24:59Z</time>
      </trkpt>
      <trkpt lat="46.97482" lon="-1.42599">
        <ele>32</ele>
        <time>2025-10-03T22:25:13Z</time>
      </trkpt>
      <trkpt lat="46.97469" lon="-1.42611">
        <ele>32</ele>
        <time>2025-10-03T22:25:17Z</time>
      </trkpt>
      <trkpt lat="46.97456" lon="-1.42621">
        <ele>32</ele>
        <time>2025-10-03T22:25:20Z</time>
      </trkpt>
      <trkpt lat="46.9744" lon="-1.42628">
        <ele>32</ele>
        <time>2025-10-03T22:25:24Z</time>
      </trkpt>
      <trkpt lat="46.97411" lon="-1.42636">
        <ele>33</ele>
        <time>2025-10-03T22:25:31Z</time>
      </trkpt>
      <trkpt lat="46.9739" lon="-1.42639">
        <ele>33</ele>
        <time>2025-10-03T22:25:36Z</time>
      </trkpt>
      <trkpt lat="46.9737" lon="-1.42645">
        <ele>33</ele>
        <time>2025-10-03T22:25:41Z</time>
      </trkpt>
      <trkpt lat="46.97364" lon="-1.42647">
        <ele>33</ele>
        <time>2025-10-03T22:25:42Z</time>
      </trkpt>
      <trkpt lat="46.97344" lon="-1.42654">
        <ele>33</ele>
        <time>2025-10-03T22:25:47Z</time>
      </trkpt>
      <trkpt lat="46.97335" lon="-1.42668">
        <ele>33</ele>
        <time>2025-10-03T22:25:50Z</time>
      </trkpt>
      <trkpt lat="46.9732" lon="-1.42687">
        <ele>32</ele>
        <time>2025-10-03T22:25:55Z</time>
      </trkpt>
      <trkpt lat="46.97291" lon="-1.4272">
        <ele>31</ele>
        <time>2025-10-03T22:26:03Z</time>
      </trkpt>
      <trkpt lat="46.97278" lon="-1.42732">
        <ele>30</ele>
        <time>2025-10-03T22:26:07Z</time>
      </trkpt>
      <trkpt lat="46.97272" lon="-1.42735">
        <ele>30</ele>
        <time>2025-10-03T22:26:08Z</time>
      </trkpt>
      <trkpt lat="46.97238" lon="-1.42735">
        <ele>30</ele>
        <time>2025-10-03T22:26:16Z</time>
      </trkpt>
      <trkpt lat="46.97223" lon="-1.42736">
        <ele>30</ele>
        <time>2025-10-03T22:26:20Z</time>
      </trkpt>
      <trkpt lat="46.97219" lon="-1.42786">
        <ele>29</ele>
        <time>2025-10-03T22:26:28Z</time>
      </trkpt>
      <trkpt lat="46.97215" lon="-1.42837">
        <ele>27</ele>
        <time>2025-10-03T22:26:36Z</time>
      </trkpt>
      <trkpt lat="46.97214" lon="-1.42854">
        <ele>28</ele>
        <time>2025-10-03T22:26:39Z</time>
      </trkpt>
      <trkpt lat="46.97213" lon="-1.42879">
        <ele>28</ele>
        <time>2025-10-03T22:26:43Z</time>
      </trkpt>
      <trkpt lat="46.97212" lon="-1.4289">
        <ele>28</ele>
        <time>2025-10-03T22:26:44Z</time>
      </trkpt>
      <trkpt lat="46.97209" lon="-1.4294">
        <ele>29</ele>
        <time>2025-10-03T22:26:52Z</time>
      </trkpt>
      <trkpt lat="46.97198" lon="-1.42938">
        <ele>29</ele>
        <time>2025-10-03T22:26:55Z</time>
      </trkpt>
      <trkpt lat="46.97197" lon="-1.42957">
        <ele>30</ele>
        <time>2025-10-03T22:26:58Z</time>
      </trkpt>
      <trkpt lat="46.97195" lon="-1.42986">
        <ele>30</ele>
        <time>2025-10-03T22:27:03Z</time>
      </trkpt>
      <trkpt lat="46.97192" lon="-1.43015">
        <ele>31</ele>
        <time>2025-10-03T22:27:07Z</time>
      </trkpt>
      <trkpt lat="46.97202" lon="-1.43017">
        <ele>31</ele>
        <time>2025-10-03T22:27:10Z</time>
      </trkpt>
      <trkpt lat="46.972" lon="-1.43044">
        <ele>31</ele>
        <time>2025-10-03T22:27:14Z</time>
      </trkpt>
      <trkpt lat="46.97195" lon="-1.43044">
        <ele>31</ele>
        <time>2025-10-03T22:27:15Z</time>
      </trkpt>
      <trkpt lat="46.97188" lon="-1.4305">
        <ele>31</ele>
        <time>2025-10-03T22:27:17Z</time>
      </trkpt>
      <trkpt lat="46.97183" lon="-1.43051">
        <ele>31</ele>
        <time>2025-10-03T22:27:18Z</time>
      </trkpt>
      <trkpt lat="46.97183" lon="-1.43061">
        <ele>32</ele>
        <time>2025-10-03T22:27:20Z</time>
      </trkpt>
      <trkpt lat="46.97178" lon="-1.4306">
        <ele>32</ele>
        <time>2025-10-03T22:27:21Z</time>
      </trkpt>
      <trkpt lat="46.97137" lon="-1.43071">
        <ele>33</ele>
        <time>2025-10-03T22:27:31Z</time>
      </trkpt>
      <trkpt lat="46.97129" lon="-1.43073">
        <ele>33</ele>
        <time>2025-10-03T22:27:33Z</time>
      </trkpt>
      <trkpt lat="46.97121" lon="-1.43075">
        <ele>33</ele>
        <time>2025-10-03T22:27:35Z</time>
      </trkpt>
      <trkpt lat="46.97117" lon="-1.43077">
        <ele>34</ele>
        <time>2025-10-03T22:27:36Z</time>
      </trkpt>
      <trkpt lat="46.97112" lon="-1.43083">
        <ele>34</ele>
        <time>2025-10-03T22:27:37Z</time>
      </trkpt>
      <trkpt lat="46.9711" lon="-1.43089">
        <ele>34</ele>
        <time>2025-10-03T22:27:38Z</time>
      </trkpt>
      <trkpt lat="46.97104" lon="-1.43137">
        <ele>36</ele>
        <time>2025-10-03T22:27:46Z</time>
      </trkpt>
      <trkpt lat="46.97098" lon="-1.43136">
        <ele>36</ele>
        <time>2025-10-03T22:27:47Z</time>
      </trkpt>
      <trkpt lat="46.97096" lon="-1.43135">
        <ele>36</ele>
        <time>2025-10-03T22:27:48Z</time>
      </trkpt>
      <trkpt lat="46.97095" lon="-1.4313">
        <ele>36</ele>
        <time>2025-10-03T22:27:49Z</time>
      </trkpt>
      <trkpt lat="46.97092" lon="-1.43128">
        <ele>36</ele>
        <time>2025-10-03T22:27:49Z</time>
      </trkpt>
      <trkpt lat="46.97089" lon="-1.43127">
        <ele>36</ele>
        <time>2025-10-03T22:27:50Z</time>
      </trkpt>
      <trkpt lat="46.97086" lon="-1.43129">
        <ele>37</ele>
        <time>2025-10-03T22:27:51Z</time>
      </trkpt>
      <trkpt lat="46.97083" lon="-1.43129">
        <ele>37</ele>
        <time>2025-10-03T22:27:52Z</time>
      </trkpt>
      <trkpt lat="46.97079" lon="-1.43126">
        <ele>37</ele>
        <time>2025-10-03T22:27:53Z</time>
      </trkpt>
      <trkpt lat="46.97074" lon="-1.43128">
        <ele>37</ele>
        <time>2025-10-03T22:27:54Z</time>
      </trkpt>
      <trkpt lat="46.97073" lon="-1.43134">
        <ele>37</ele>
        <time>2025-10-03T22:27:55Z</time>
      </trkpt>
      <trkpt lat="46.97072" lon="-1.43136">
        <ele>37</ele>
        <time>2025-10-03T22:27:55Z</time>
      </trkpt>
      <trkpt lat="46.97068" lon="-1.43138">
        <ele>37</ele>
        <time>2025-10-03T22:27:56Z</time>
      </trkpt>
      <trkpt lat="46.97066" lon="-1.43168">
        <ele>38</ele>
        <time>2025-10-03T22:28:01Z</time>
      </trkpt>
      <trkpt lat="46.97064" lon="-1.43175">
        <ele>39</ele>
        <time>2025-10-03T22:28:02Z</time>
      </trkpt>
      <trkpt lat="46.9704" lon="-1.43166">
        <ele>39</ele>
        <time>2025-10-03T22:28:08Z</time>
      </trkpt>
      <trkpt lat="46.97036" lon="-1.43167">
        <ele>39</ele>
        <time>2025-10-03T22:28:09Z</time>
      </trkpt>
      <trkpt lat="46.9702" lon="-1.43162">
        <ele>39</ele>
        <time>2025-10-03T22:28:13Z</time>
      </trkpt>
      <trkpt lat="46.97012" lon="-1.43162">
        <ele>39</ele>
        <time>2025-10-03T22:28:15Z</time>
      </trkpt>
      <trkpt lat="46.97009" lon="-1.43159">
        <ele>39</ele>
        <time>2025-10-03T22:28:16Z</time>
      </trkpt>
      <trkpt lat="46.97006" lon="-1.43158">
        <ele>39</ele>
        <time>2025-10-03T22:28:16Z</time>
      </trkpt>
      <trkpt lat="46.9698" lon="-1.43166">
        <ele>39</ele>
        <time>2025-10-03T22:28:22Z</time>
      </trkpt>
      <trkpt lat="46.96979" lon="-1.43155">
        <ele>39</ele>
        <time>2025-10-03T22:28:24Z</time>
      </trkpt>
      <trkpt lat="46.96979" lon="-1.43154">
        <ele>39</ele>
        <time>2025-10-03T22:28:24Z</time>
      </trkpt>
      <trkpt lat="46.96945" lon="-1.43158">
        <ele>39</ele>
        <time>2025-10-03T22:28:32Z</time>
      </trkpt>
      <trkpt lat="46.96925" lon="-1.43164">
        <ele>40</ele>
        <time>2025-10-03T22:28:37Z</time>
      </trkpt>
      <trkpt lat="46.96905" lon="-1.43168">
        <ele>40</ele>
        <time>2025-10-03T22:28:42Z</time>
      </trkpt>
      <trkpt lat="46.96892" lon="-1.43173">
        <ele>41</ele>
        <time>2025-10-03T22:28:45Z</time>
      </trkpt>
      <trkpt lat="46.96876" lon="-1.43182">
        <ele>41</ele>
        <time>2025-10-03T22:28:49Z</time>
      </trkpt>
      <trkpt lat="46.96827" lon="-1.43209">
        <ele>43</ele>
        <time>2025-10-03T22:29:01Z</time>
      </trkpt>
      <trkpt lat="46.96817" lon="-1.43216">
        <ele>42</ele>
        <time>2025-10-03T22:29:04Z</time>
      </trkpt>
      <trkpt lat="46.96803" lon="-1.43229">
        <ele>42</ele>
        <time>2025-10-03T22:29:08Z</time>
      </trkpt>
      <trkpt lat="46.9679" lon="-1.43243">
        <ele>42</ele>
        <time>2025-10-03T22:29:11Z</time>
      </trkpt>
      <trkpt lat="46.96784" lon="-1.43234">
        <ele>41</ele>
        <time>2025-10-03T22:29:13Z</time>
      </trkpt>
      <trkpt lat="46.96781" lon="-1.43224">
        <ele>41</ele>
        <time>2025-10-03T22:29:15Z</time>
      </trkpt>
      <trkpt lat="46.96757" lon="-1.43124">
        <ele>36</ele>
        <time>2025-10-03T22:29:32Z</time>
      </trkpt>
      <trkpt lat="46.96755" lon="-1.4312">
        <ele>36</ele>
        <time>2025-10-03T22:29:33Z</time>
      </trkpt>
      <trkpt lat="46.967" lon="-1.43157">
        <ele>35</ele>
        <time>2025-10-03T22:29:47Z</time>
      </trkpt>
      <trkpt lat="46.96667" lon="-1.43175">
        <ele>34</ele>
        <time>2025-10-03T22:29:55Z</time>
      </trkpt>
      <trkpt lat="46.96658" lon="-1.43181">
        <ele>35</ele>
        <time>2025-10-03T22:29:58Z</time>
      </trkpt>
      <trkpt lat="46.96648" lon="-1.43189">
        <ele>35</ele>
        <time>2025-10-03T22:30:00Z</time>
      </trkpt>
      <trkpt lat="46.96637" lon="-1.43198">
        <ele>35</ele>
        <time>2025-10-03T22:30:03Z</time>
      </trkpt>
      <trkpt lat="46.96637" lon="-1.43198">
        <ele>35</ele>
        <time>2025-10-03T22:30:03Z</time>
      </trkpt>
      <trkpt lat="46.96622" lon="-1.43211">
        <ele>35</ele>
        <time>2025-10-03T22:30:07Z</time>
      </trkpt>
      <trkpt lat="46.966" lon="-1.43235">
        <ele>34</ele>
        <time>2025-10-03T22:30:14Z</time>
      </trkpt>
      <trkpt lat="46.96586" lon="-1.43253">
        <ele>33</ele>
        <time>2025-10-03T22:30:18Z</time>
      </trkpt>
      <trkpt lat="46.96566" lon="-1.43284">
        <ele>34</ele>
        <time>2025-10-03T22:30:25Z</time>
      </trkpt>
      <trkpt lat="46.96537" lon="-1.43318">
        <ele>33</ele>
        <time>2025-10-03T22:30:33Z</time>
      </trkpt>
      <trkpt lat="46.96522" lon="-1.43334">
        <ele>33</ele>
        <time>2025-10-03T22:30:38Z</time>
      </trkpt>
      <trkpt lat="46.965" lon="-1.43354">
        <ele>32</ele>
        <time>2025-10-03T22:30:44Z</time>
      </trkpt>
      <trkpt lat="46.96484" lon="-1.43368">
        <ele>32</ele>
        <time>2025-10-03T22:30:48Z</time>
      </trkpt>
      <trkpt lat="46.96478" lon="-1.43372">
        <ele>32</ele>
        <time>2025-10-03T22:30:50Z</time>
      </trkpt>
      <trkpt lat="46.96462" lon="-1.43383">
        <ele>32</ele>
        <time>2025-10-03T22:30:54Z</time>
      </trkpt>
      <trkpt lat="46.96442" lon="-1.43395">
        <ele>32</ele>
        <time>2025-10-03T22:30:59Z</time>
      </trkpt>
      <trkpt lat="46.96426" lon="-1.43402">
        <ele>32</ele>
        <time>2025-10-03T22:31:03Z</time>
      </trkpt>
      <trkpt lat="46.96411" lon="-1.43407">
        <ele>32</ele>
        <time>2025-10-03T22:31:06Z</time>
      </trkpt>
      <trkpt lat="46.96376" lon="-1.43413">
        <ele>34</ele>
        <time>2025-10-03T22:31:15Z</time>
      </trkpt>
      <trkpt lat="46.96354" lon="-1.43413">
        <ele>35</ele>
        <time>2025-10-03T22:31:20Z</time>
      </trkpt>
      <trkpt lat="46.9632" lon="-1.43404">
        <ele>35</ele>
        <time>2025-10-03T22:31:28Z</time>
      </trkpt>
      <trkpt lat="46.96232" lon="-1.43372">
        <ele>33</ele>
        <time>2025-10-03T22:31:49Z</time>
      </trkpt>
      <trkpt lat="46.96187" lon="-1.43358">
        <ele>33</ele>
        <time>2025-10-03T22:32:00Z</time>
      </trkpt>
      <trkpt lat="46.96161" lon="-1.43348">
        <ele>34</ele>
        <time>2025-10-03T22:32:06Z</time>
      </trkpt>
      <trkpt lat="46.96145" lon="-1.43345">
        <ele>34</ele>
        <time>2025-10-03T22:32:10Z</time>
      </trkpt>
      <trkpt lat="46.96124" lon="-1.43344">
        <ele>34</ele>
        <time>2025-10-03T22:32:15Z</time>
      </trkpt>
      <trkpt lat="46.96115" lon="-1.43345">
        <ele>34</ele>
        <time>2025-10-03T22:32:17Z</time>
      </trkpt>
      <trkpt lat="46.96093" lon="-1.43352">
        <ele>34</ele>
        <time>2025-10-03T22:32:22Z</time>
      </trkpt>
      <trkpt lat="46.96054" lon="-1.43367">
        <ele>34</ele>
        <time>2025-10-03T22:32:31Z</time>
      </trkpt>
      <trkpt lat="46.96039" lon="-1.43371">
        <ele>34</ele>
        <time>2025-10-03T22:32:35Z</time>
      </trkpt>
      <trkpt lat="46.96026" lon="-1.43374">
        <ele>34</ele>
        <time>2025-10-03T22:32:38Z</time>
      </trkpt>
      <trkpt lat="46.95963" lon="-1.43376">
        <ele>34</ele>
        <time>2025-10-03T22:32:53Z</time>
      </trkpt>
      <trkpt lat="46.95953" lon="-1.43369">
        <ele>34</ele>
        <time>2025-10-03T22:32:55Z</time>
      </trkpt>
      <trkpt lat="46.95949" lon="-1.43362">
        <ele>33</ele>
        <time>2025-10-03T22:32:57Z</time>
      </trkpt>
      <trkpt lat="46.95939" lon="-1.43353">
        <ele>33</ele>
        <time>2025-10-03T22:33:00Z</time>
      </trkpt>
      <trkpt lat="46.95879" lon="-1.43311">
        <ele>32</ele>
        <time>2025-10-03T22:33:15Z</time>
      </trkpt>
      <trkpt lat="46.95878" lon="-1.43311">
        <ele>32</ele>
        <time>2025-10-03T22:33:15Z</time>
      </trkpt>
      <trkpt lat="46.95878" lon="-1.43311">
        <ele>32</ele>
        <time>2025-10-03T22:33:15Z</time>
      </trkpt>
      <trkpt lat="46.95877" lon="-1.4331">
        <ele>32</ele>
        <time>2025-10-03T22:33:16Z</time>
      </trkpt>
      <trkpt lat="46.95841" lon="-1.43287">
        <ele>32</ele>
        <time>2025-10-03T22:33:25Z</time>
      </trkpt>
      <trkpt lat="46.95826" lon="-1.4328">
        <ele>32</ele>
        <time>2025-10-03T22:33:29Z</time>
      </trkpt>
      <trkpt lat="46.95822" lon="-1.4328">
        <ele>32</ele>
        <time>2025-10-03T22:33:29Z</time>
      </trkpt>
      <trkpt lat="46.95816" lon="-1.43281">
        <ele>32</ele>
        <time>2025-10-03T22:33:31Z</time>
      </trkpt>
      <trkpt lat="46.95803" lon="-1.43287">
        <ele>32</ele>
        <time>2025-10-03T22:33:34Z</time>
      </trkpt>
      <trkpt lat="46.95799" lon="-1.43292">
        <ele>33</ele>
        <time>2025-10-03T22:33:35Z</time>
      </trkpt>
      <trkpt lat="46.95792" lon="-1.43303">
        <ele>33</ele>
        <time>2025-10-03T22:33:38Z</time>
      </trkpt>
      <trkpt lat="46.95776" lon="-1.43334">
        <ele>33</ele>
        <time>2025-10-03T22:33:44Z</time>
      </trkpt>
      <trkpt lat="46.95767" lon="-1.43353">
        <ele>33</ele>
        <time>2025-10-03T22:33:48Z</time>
      </trkpt>
      <trkpt lat="46.95752" lon="-1.43396">
        <ele>34</ele>
        <time>2025-10-03T22:33:55Z</time>
      </trkpt>
      <trkpt lat="46.95739" lon="-1.43421">
        <ele>34</ele>
        <time>2025-10-03T22:34:00Z</time>
      </trkpt>
      <trkpt lat="46.95727" lon="-1.43438">
        <ele>34</ele>
        <time>2025-10-03T22:34:04Z</time>
      </trkpt>
      <trkpt lat="46.95725" lon="-1.43441">
        <ele>34</ele>
        <time>2025-10-03T22:34:05Z</time>
      </trkpt>
      <trkpt lat="46.95719" lon="-1.43442">
        <ele>34</ele>
        <time>2025-10-03T22:34:06Z</time>
      </trkpt>
      <trkpt lat="46.95709" lon="-1.43436">
        <ele>34</ele>
        <time>2025-10-03T22:34:09Z</time>
      </trkpt>
      <trkpt lat="46.95707" lon="-1.43435">
        <ele>33</ele>
        <time>2025-10-03T22:34:09Z</time>
      </trkpt>
      <trkpt lat="46.95704" lon="-1.43454">
        <ele>33</ele>
        <time>2025-10-03T22:34:12Z</time>
      </trkpt>
      <trkpt lat="46.95704" lon="-1.43463">
        <ele>33</ele>
        <time>2025-10-03T22:34:14Z</time>
      </trkpt>
      <trkpt lat="46.95667" lon="-1.43463">
        <ele>32</ele>
        <time>2025-10-03T22:34:22Z</time>
      </trkpt>
      <trkpt lat="46.95554" lon="-1.43457">
        <ele>37</ele>
        <time>2025-10-03T22:34:49Z</time>
      </trkpt>
      <trkpt lat="46.9554" lon="-1.43458">
        <ele>37</ele>
        <time>2025-10-03T22:34:52Z</time>
      </trkpt>
      <trkpt lat="46.95512" lon="-1.43464">
        <ele>36</ele>
        <time>2025-10-03T22:34:59Z</time>
      </trkpt>
      <trkpt lat="46.95501" lon="-1.43468">
        <ele>36</ele>
        <time>2025-10-03T22:35:01Z</time>
      </trkpt>
      <trkpt lat="46.95491" lon="-1.43473">
        <ele>36</ele>
        <time>2025-10-03T22:35:04Z</time>
      </trkpt>
      <trkpt lat="46.95446" lon="-1.43505">
        <ele>35</ele>
        <time>2025-10-03T22:35:16Z</time>
      </trkpt>
      <trkpt lat="46.95448" lon="-1.43516">
        <ele>35</ele>
        <time>2025-10-03T22:35:17Z</time>
      </trkpt>
      <trkpt lat="46.95455" lon="-1.43562">
        <ele>34</ele>
        <time>2025-10-03T22:35:25Z</time>
      </trkpt>
      <trkpt lat="46.95459" lon="-1.43599">
        <ele>33</ele>
        <time>2025-10-03T22:35:31Z</time>
      </trkpt>
      <trkpt lat="46.95461" lon="-1.43726">
        <ele>36</ele>
        <time>2025-10-03T22:35:51Z</time>
      </trkpt>
      <trkpt lat="46.95459" lon="-1.43752">
        <ele>37</ele>
        <time>2025-10-03T22:35:55Z</time>
      </trkpt>
      <trkpt lat="46.95455" lon="-1.43783">
        <ele>37</ele>
        <time>2025-10-03T22:36:00Z</time>
      </trkpt>
      <trkpt lat="46.95452" lon="-1.43803">
        <ele>38</ele>
        <time>2025-10-03T22:36:04Z</time>
      </trkpt>
      <trkpt lat="46.95448" lon="-1.43828">
        <ele>38</ele>
        <time>2025-10-03T22:36:08Z</time>
      </trkpt>
      <trkpt lat="46.95445" lon="-1.43841">
        <ele>38</ele>
        <time>2025-10-03T22:36:10Z</time>
      </trkpt>
      <trkpt lat="46.95445" lon="-1.43851">
        <ele>39</ele>
        <time>2025-10-03T22:36:11Z</time>
      </trkpt>
      <trkpt lat="46.95446" lon="-1.43857">
        <ele>39</ele>
        <time>2025-10-03T22:36:12Z</time>
      </trkpt>
      <trkpt lat="46.9545" lon="-1.43869">
        <ele>39</ele>
        <time>2025-10-03T22:36:15Z</time>
      </trkpt>
      <trkpt lat="46.95737" lon="-1.44551">
        <ele>45</ele>
        <time>2025-10-03T22:38:22Z</time>
      </trkpt>
      <trkpt lat="46.95752" lon="-1.44585">
        <ele>45</ele>
        <time>2025-10-03T22:38:29Z</time>
      </trkpt>
      <trkpt lat="46.95759" lon="-1.44595">
        <ele>45</ele>
        <time>2025-10-03T22:38:31Z</time>
      </trkpt>
      <trkpt lat="46.95751" lon="-1.4461">
        <ele>45</ele>
        <time>2025-10-03T22:38:34Z</time>
      </trkpt>
      <trkpt lat="46.95734" lon="-1.44638">
        <ele>45</ele>
        <time>2025-10-03T22:38:40Z</time>
      </trkpt>
      <trkpt lat="46.95647" lon="-1.44775">
        <ele>45</ele>
        <time>2025-10-03T22:39:10Z</time>
      </trkpt>
      <trkpt lat="46.95625" lon="-1.44811">
        <ele>45</ele>
        <time>2025-10-03T22:39:17Z</time>
      </trkpt>
      <trkpt lat="46.9554" lon="-1.44942">
        <ele>45</ele>
        <time>2025-10-03T22:39:46Z</time>
      </trkpt>
      <trkpt lat="46.95533" lon="-1.44954">
        <ele>45</ele>
        <time>2025-10-03T22:39:49Z</time>
      </trkpt>
      <trkpt lat="46.9553" lon="-1.44963">
        <ele>45</ele>
        <time>2025-10-03T22:39:50Z</time>
      </trkpt>
      <trkpt lat="46.95527" lon="-1.44981">
        <ele>45</ele>
        <time>2025-10-03T22:39:53Z</time>
      </trkpt>
      <trkpt lat="46.95528" lon="-1.44994">
        <ele>45</ele>
        <time>2025-10-03T22:39:55Z</time>
      </trkpt>
      <trkpt lat="46.95572" lon="-1.45288">
        <ele>46</ele>
        <time>2025-10-03T22:40:43Z</time>
      </trkpt>
      <trkpt lat="46.95573" lon="-1.45296">
        <ele>46</ele>
        <time>2025-10-03T22:40:45Z</time>
      </trkpt>
      <trkpt lat="46.95573" lon="-1.4531">
        <ele>46</ele>
        <time>2025-10-03T22:40:47Z</time>
      </trkpt>
      <trkpt lat="46.95563" lon="-1.45307">
        <ele>46</ele>
        <time>2025-10-03T22:40:49Z</time>
      </trkpt>
      <trkpt lat="46.95468" lon="-1.45303">
        <ele>47</ele>
        <time>2025-10-03T22:41:12Z</time>
      </trkpt>
      <trkpt lat="46.95365" lon="-1.45297">
        <ele>48</ele>
        <time>2025-10-03T22:41:36Z</time>
      </trkpt>
      <trkpt lat="46.95111" lon="-1.45285">
        <ele>46</ele>
        <time>2025-10-03T22:42:35Z</time>
      </trkpt>
      <trkpt lat="46.9511" lon="-1.45292">
        <ele>46</ele>
        <time>2025-10-03T22:42:36Z</time>
      </trkpt>
      <trkpt lat="46.95107" lon="-1.4531">
        <ele>46</ele>
        <time>2025-10-03T22:42:39Z</time>
      </trkpt>
      <trkpt lat="46.95055" lon="-1.45495">
        <ele>45</ele>
        <time>2025-10-03T22:43:11Z</time>
      </trkpt>
      <trkpt lat="46.95036" lon="-1.45561">
        <ele>44</ele>
        <time>2025-10-03T22:43:22Z</time>
      </trkpt>
      <trkpt lat="46.95023" lon="-1.45601">
        <ele>43</ele>
        <time>2025-10-03T22:43:29Z</time>
      </trkpt>
      <trkpt lat="46.95018" lon="-1.4562">
        <ele>42</ele>
        <time>2025-10-03T22:43:33Z</time>
      </trkpt>
      <trkpt lat="46.95004" lon="-1.45672">
        <ele>39</ele>
        <time>2025-10-03T22:43:42Z</time>
      </trkpt>
      <trkpt lat="46.94998" lon="-1.4569">
        <ele>39</ele>
        <time>2025-10-03T22:43:45Z</time>
      </trkpt>
      <trkpt lat="46.94978" lon="-1.45715">
        <ele>38</ele>
        <time>2025-10-03T22:43:51Z</time>
      </trkpt>
      <trkpt lat="46.94533" lon="-1.46222">
        <ele>46</ele>
        <time>2025-10-03T22:46:03Z</time>
      </trkpt>
      <trkpt lat="46.94527" lon="-1.46226">
        <ele>47</ele>
        <time>2025-10-03T22:46:04Z</time>
      </trkpt>
      <trkpt lat="46.94523" lon="-1.46225">
        <ele>47</ele>
        <time>2025-10-03T22:46:05Z</time>
      </trkpt>
      <trkpt lat="46.94519" lon="-1.46222">
        <ele>47</ele>
        <time>2025-10-03T22:46:06Z</time>
      </trkpt>
      <trkpt lat="46.94515" lon="-1.46218">
        <ele>47</ele>
        <time>2025-10-03T22:46:07Z</time>
      </trkpt>
      <trkpt lat="46.94512" lon="-1.46211">
        <ele>47</ele>
        <time>2025-10-03T22:46:09Z</time>
      </trkpt>
      <trkpt lat="46.94494" lon="-1.46143">
        <ele>47</ele>
        <time>2025-10-03T22:46:20Z</time>
      </trkpt>
      <trkpt lat="46.94481" lon="-1.46099">
        <ele>47</ele>
        <time>2025-10-03T22:46:28Z</time>
      </trkpt>
      <trkpt lat="46.94478" lon="-1.46095">
        <ele>47</ele>
        <time>2025-10-03T22:46:29Z</time>
      </trkpt>
      <trkpt lat="46.94473" lon="-1.46093">
        <ele>47</ele>
        <time>2025-10-03T22:46:30Z</time>
      </trkpt>
      <trkpt lat="46.94469" lon="-1.46094">
        <ele>47</ele>
        <time>2025-10-03T22:46:31Z</time>
      </trkpt>
      <trkpt lat="46.94462" lon="-1.46096">
        <ele>47</ele>
        <time>2025-10-03T22:46:33Z</time>
      </trkpt>
      <trkpt lat="46.9442" lon="-1.46121">
        <ele>47</ele>
        <time>2025-10-03T22:46:43Z</time>
      </trkpt>
      <trkpt lat="46.94402" lon="-1.46128">
        <ele>48</ele>
        <time>2025-10-03T22:46:48Z</time>
      </trkpt>
      <trkpt lat="46.94385" lon="-1.4614">
        <ele>48</ele>
        <time>2025-10-03T22:46:52Z</time>
      </trkpt>
      <trkpt lat="46.94359" lon="-1.46154">
        <ele>48</ele>
        <time>2025-10-03T22:46:58Z</time>
      </trkpt>
      <trkpt lat="46.94339" lon="-1.46169">
        <ele>48</ele>
        <time>2025-10-03T22:47:04Z</time>
      </trkpt>
      <trkpt lat="46.94361" lon="-1.46217">
        <ele>49</ele>
        <time>2025-10-03T22:47:13Z</time>
      </trkpt>
      <trkpt lat="46.94416" lon="-1.46298">
        <ele>48</ele>
        <time>2025-10-03T22:47:31Z</time>
      </trkpt>
      <trkpt lat="46.94425" lon="-1.46313">
        <ele>48</ele>
        <time>2025-10-03T22:47:34Z</time>
      </trkpt>
      <trkpt lat="46.94438" lon="-1.46339">
        <ele>48</ele>
        <time>2025-10-03T22:47:39Z</time>
      </trkpt>
      <trkpt lat="46.94445" lon="-1.46359">
        <ele>47</ele>
        <time>2025-10-03T22:47:43Z</time>
      </trkpt>
      <trkpt lat="46.94455" lon="-1.46393">
        <ele>46</ele>
        <time>2025-10-03T22:47:49Z</time>
      </trkpt>
      <trkpt lat="46.94463" lon="-1.46415">
        <ele>46</ele>
        <time>2025-10-03T22:47:53Z</time>
      </trkpt>
      <trkpt lat="46.94473" lon="-1.4643">
        <ele>46</ele>
        <time>2025-10-03T22:47:56Z</time>
      </trkpt>
      <trkpt lat="46.94484" lon="-1.46441">
        <ele>45</ele>
        <time>2025-10-03T22:47:59Z</time>
      </trkpt>
      <trkpt lat="46.94473" lon="-1.46454">
        <ele>45</ele>
        <time>2025-10-03T22:48:03Z</time>
      </trkpt>
      <trkpt lat="46.9445" lon="-1.46479">
        <ele>44</ele>
        <time>2025-10-03T22:48:09Z</time>
      </trkpt>
      <trkpt lat="46.9444" lon="-1.46486">
        <ele>44</ele>
        <time>2025-10-03T22:48:12Z</time>
      </trkpt>
      <trkpt lat="46.9443" lon="-1.46492">
        <ele>44</ele>
        <time>2025-10-03T22:48:14Z</time>
      </trkpt>
      <trkpt lat="46.94421" lon="-1.46495">
        <ele>44</ele>
        <time>2025-10-03T22:48:17Z</time>
      </trkpt>
      <trkpt lat="46.9441" lon="-1.46497">
        <ele>44</ele>
        <time>2025-10-03T22:48:19Z</time>
      </trkpt>
      <trkpt lat="46.94402" lon="-1.46498">
        <ele>44</ele>
        <time>2025-10-03T22:48:21Z</time>
      </trkpt>
      <trkpt lat="46.94391" lon="-1.46497">
        <ele>44</ele>
        <time>2025-10-03T22:48:24Z</time>
      </trkpt>
      <trkpt lat="46.94252" lon="-1.46476">
        <ele>46</ele>
        <time>2025-10-03T22:48:56Z</time>
      </trkpt>
      <trkpt lat="46.94237" lon="-1.46477">
        <ele>46</ele>
        <time>2025-10-03T22:49:00Z</time>
      </trkpt>
      <trkpt lat="46.94221" lon="-1.4648">
        <ele>46</ele>
        <time>2025-10-03T22:49:04Z</time>
      </trkpt>
      <trkpt lat="46.94113" lon="-1.46503">
        <ele>47</ele>
        <time>2025-10-03T22:49:29Z</time>
      </trkpt>
      <trkpt lat="46.93732" lon="-1.46583">
        <ele>50</ele>
        <time>2025-10-03T22:50:59Z</time>
      </trkpt>
      <trkpt lat="46.9362" lon="-1.46606">
        <ele>50</ele>
        <time>2025-10-03T22:51:25Z</time>
      </trkpt>
      <trkpt lat="46.93494" lon="-1.46633">
        <ele>50</ele>
        <time>2025-10-03T22:51:55Z</time>
      </trkpt>
      <trkpt lat="46.9348" lon="-1.46638">
        <ele>50</ele>
        <time>2025-10-03T22:51:58Z</time>
      </trkpt>
      <trkpt lat="46.93486" lon="-1.46667">
        <ele>49</ele>
        <time>2025-10-03T22:52:03Z</time>
      </trkpt>
      <trkpt lat="46.9352" lon="-1.46946">
        <ele>44</ele>
        <time>2025-10-03T22:52:48Z</time>
      </trkpt>
      <trkpt lat="46.93522" lon="-1.46976">
        <ele>44</ele>
        <time>2025-10-03T22:52:53Z</time>
      </trkpt>
      <trkpt lat="46.93536" lon="-1.47058">
        <ele>41</ele>
        <time>2025-10-03T22:53:07Z</time>
      </trkpt>
      <trkpt lat="46.93547" lon="-1.4714">
        <ele>40</ele>
        <time>2025-10-03T22:53:20Z</time>
      </trkpt>
      <trkpt lat="46.93547" lon="-1.47149">
        <ele>40</ele>
        <time>2025-10-03T22:53:21Z</time>
      </trkpt>
      <trkpt lat="46.93546" lon="-1.47165">
        <ele>39</ele>
        <time>2025-10-03T22:53:24Z</time>
      </trkpt>
      <trkpt lat="46.93543" lon="-1.47184">
        <ele>40</ele>
        <time>2025-10-03T22:53:27Z</time>
      </trkpt>
      <trkpt lat="46.9354" lon="-1.47204">
        <ele>40</ele>
        <time>2025-10-03T22:53:30Z</time>
      </trkpt>
      <trkpt lat="46.93522" lon="-1.47327">
        <ele>43</ele>
        <time>2025-10-03T22:53:50Z</time>
      </trkpt>
      <trkpt lat="46.9352" lon="-1.47352">
        <ele>44</ele>
        <time>2025-10-03T22:53:54Z</time>
      </trkpt>
      <trkpt lat="46.9352" lon="-1.47375">
        <ele>44</ele>
        <time>2025-10-03T22:53:58Z</time>
      </trkpt>
      <trkpt lat="46.93523" lon="-1.474">
        <ele>45</ele>
        <time>2025-10-03T22:54:02Z</time>
      </trkpt>
      <trkpt lat="46.93532" lon="-1.47454">
        <ele>46</ele>
        <time>2025-10-03T22:54:11Z</time>
      </trkpt>
      <trkpt lat="46.93552" lon="-1.47574">
        <ele>48</ele>
        <time>2025-10-03T22:54:31Z</time>
      </trkpt>
      <trkpt lat="46.93582" lon="-1.47735">
        <ele>49</ele>
        <time>2025-10-03T22:54:57Z</time>
      </trkpt>
      <trkpt lat="46.9359" lon="-1.47769">
        <ele>49</ele>
        <time>2025-10-03T22:55:03Z</time>
      </trkpt>
      <trkpt lat="46.93594" lon="-1.4778">
        <ele>49</ele>
        <time>2025-10-03T22:55:05Z</time>
      </trkpt>
      <trkpt lat="46.93618" lon="-1.4783">
        <ele>48</ele>
        <time>2025-10-03T22:55:15Z</time>
      </trkpt>
      <trkpt lat="46.93645" lon="-1.47881">
        <ele>48</ele>
        <time>2025-10-03T22:55:25Z</time>
      </trkpt>
      <trkpt lat="46.93651" lon="-1.47893">
        <ele>48</ele>
        <time>2025-10-03T22:55:28Z</time>
      </trkpt>
      <trkpt lat="46.93656" lon="-1.47908">
        <ele>48</ele>
        <time>2025-10-03T22:55:30Z</time>
      </trkpt>
      <trkpt lat="46.93661" lon="-1.47925">
        <ele>48</ele>
        <time>2025-10-03T22:55:33Z</time>
      </trkpt>
      <trkpt lat="46.93663" lon="-1.47943">
        <ele>48</ele>
        <time>2025-10-03T22:55:36Z</time>
      </trkpt>
      <trkpt lat="46.93668" lon="-1.48021">
        <ele>49</ele>
        <time>2025-10-03T22:55:49Z</time>
      </trkpt>
      <trkpt lat="46.93676" lon="-1.4806">
        <ele>50</ele>
        <time>2025-10-03T22:55:55Z</time>
      </trkpt>
      <trkpt lat="46.93687" lon="-1.48128">
        <ele>50</ele>
        <time>2025-10-03T22:56:06Z</time>
      </trkpt>
      <trkpt lat="46.93696" lon="-1.48197">
        <ele>51</ele>
        <time>2025-10-03T22:56:17Z</time>
      </trkpt>
      <trkpt lat="46.93732" lon="-1.48418">
        <ele>51</ele>
        <time>2025-10-03T22:56:54Z</time>
      </trkpt>
      <trkpt lat="46.93737" lon="-1.48458">
        <ele>51</ele>
        <time>2025-10-03T22:57:00Z</time>
      </trkpt>
      <trkpt lat="46.93804" lon="-1.48868">
        <ele>55</ele>
        <time>2025-10-03T22:58:07Z</time>
      </trkpt>
      <trkpt lat="46.93809" lon="-1.48906">
        <ele>55</ele>
        <time>2025-10-03T22:58:13Z</time>
      </trkpt>
      <trkpt lat="46.93809" lon="-1.48932">
        <ele>55</ele>
        <time>2025-10-03T22:58:18Z</time>
      </trkpt>
      <trkpt lat="46.93809" lon="-1.48959">
        <ele>56</ele>
        <time>2025-10-03T22:58:22Z</time>
      </trkpt>
      <trkpt lat="46.93802" lon="-1.49142">
        <ele>56</ele>
        <time>2025-10-03T22:58:51Z</time>
      </trkpt>
      <trkpt lat="46.93803" lon="-1.49183">
        <ele>56</ele>
        <time>2025-10-03T22:58:58Z</time>
      </trkpt>
      <trkpt lat="46.93813" lon="-1.49299">
        <ele>57</ele>
        <time>2025-10-03T22:59:16Z</time>
      </trkpt>
      <trkpt lat="46.93815" lon="-1.49325">
        <ele>56</ele>
        <time>2025-10-03T22:59:21Z</time>
      </trkpt>
      <trkpt lat="46.93812" lon="-1.49334">
        <ele>56</ele>
        <time>2025-10-03T22:59:22Z</time>
      </trkpt>
      <trkpt lat="46.93821" lon="-1.49345">
        <ele>56</ele>
        <time>2025-10-03T22:59:25Z</time>
      </trkpt>
      <trkpt lat="46.93831" lon="-1.4938">
        <ele>55</ele>
        <time>2025-10-03T22:59:31Z</time>
      </trkpt>
      <trkpt lat="46.93855" lon="-1.49461">
        <ele>55</ele>
        <time>2025-10-03T22:59:45Z</time>
      </trkpt>
      <trkpt lat="46.93863" lon="-1.49486">
        <ele>55</ele>
        <time>2025-10-03T22:59:49Z</time>
      </trkpt>
      <trkpt lat="46.93874" lon="-1.49515">
        <ele>55</ele>
        <time>2025-10-03T22:59:55Z</time>
      </trkpt>
      <trkpt lat="46.93886" lon="-1.49545">
        <ele>55</ele>
        <time>2025-10-03T23:00:00Z</time>
      </trkpt>
      <trkpt lat="46.93895" lon="-1.49564">
        <ele>55</ele>
        <time>2025-10-03T23:00:04Z</time>
      </trkpt>
      <trkpt lat="46.93885" lon="-1.49572">
        <ele>56</ele>
        <time>2025-10-03T23:00:07Z</time>
      </trkpt>
      <trkpt lat="46.93898" lon="-1.49607">
        <ele>55</ele>
        <time>2025-10-03T23:00:13Z</time>
      </trkpt>
      <trkpt lat="46.93897" lon="-1.4962">
        <ele>55</ele>
        <time>2025-10-03T23:00:15Z</time>
      </trkpt>
      <trkpt lat="46.93888" lon="-1.49654">
        <ele>56</ele>
        <time>2025-10-03T23:00:21Z</time>
      </trkpt>
      <trkpt lat="46.93883" lon="-1.4967">
        <ele>56</ele>
        <time>2025-10-03T23:00:24Z</time>
      </trkpt>
      <trkpt lat="46.93937" lon="-1.49705">
        <ele>55</ele>
        <time>2025-10-03T23:00:37Z</time>
      </trkpt>
      <trkpt lat="46.93935" lon="-1.49709">
        <ele>54</ele>
        <time>2025-10-03T23:00:38Z</time>
      </trkpt>
      <trkpt lat="46.93919" lon="-1.4976">
        <ele>54</ele>
        <time>2025-10-03T23:00:47Z</time>
      </trkpt>
      <trkpt lat="46.93904" lon="-1.49818">
        <ele>55</ele>
        <time>2025-10-03T23:00:57Z</time>
      </trkpt>
      <trkpt lat="46.93893" lon="-1.49852">
        <ele>55</ele>
        <time>2025-10-03T23:01:03Z</time>
      </trkpt>
      <trkpt lat="46.93894" lon="-1.49861">
        <ele>55</ele>
        <time>2025-10-03T23:01:04Z</time>
      </trkpt>
      <trkpt lat="46.93879" lon="-1.49907">
        <ele>56</ele>
        <time>2025-10-03T23:01:13Z</time>
      </trkpt>
      <trkpt lat="46.93878" lon="-1.49911">
        <ele>56</ele>
        <time>2025-10-03T23:01:13Z</time>
      </trkpt>
      <trkpt lat="46.93826" lon="-1.50073">
        <ele>56</ele>
        <time>2025-10-03T23:01:42Z</time>
      </trkpt>
      <trkpt lat="46.93821" lon="-1.50077">
        <ele>56</ele>
        <time>2025-10-03T23:01:43Z</time>
      </trkpt>
      <trkpt lat="46.93815" lon="-1.50095">
        <ele>56</ele>
        <time>2025-10-03T23:01:46Z</time>
      </trkpt>
      <trkpt lat="46.93805" lon="-1.50125">
        <ele>56</ele>
        <time>2025-10-03T23:01:52Z</time>
      </trkpt>
      <trkpt lat="46.93806" lon="-1.50134">
        <ele>56</ele>
        <time>2025-10-03T23:01:53Z</time>
      </trkpt>
      <trkpt lat="46.938" lon="-1.50138">
        <ele>56</ele>
        <time>2025-10-03T23:01:55Z</time>
      </trkpt>
      <trkpt lat="46.93795" lon="-1.50154">
        <ele>56</ele>
        <time>2025-10-03T23:01:57Z</time>
      </trkpt>
      <trkpt lat="46.93792" lon="-1.50159">
        <ele>56</ele>
        <time>2025-10-03T23:01:59Z</time>
      </trkpt>
      <trkpt lat="46.93825" lon="-1.50196">
        <ele>56</ele>
        <time>2025-10-03T23:02:08Z</time>
      </trkpt>
      <trkpt lat="46.93805" lon="-1.50241">
        <ele>56</ele>
        <time>2025-10-03T23:02:17Z</time>
      </trkpt>
      <trkpt lat="46.9378" lon="-1.50313">
        <ele>55</ele>
        <time>2025-10-03T23:02:30Z</time>
      </trkpt>
      <trkpt lat="46.93764" lon="-1.50353">
        <ele>55</ele>
        <time>2025-10-03T23:02:37Z</time>
      </trkpt>
      <trkpt lat="46.93738" lon="-1.50408">
        <ele>54</ele>
        <time>2025-10-03T23:02:48Z</time>
      </trkpt>
      <trkpt lat="46.93738" lon="-1.50409">
        <ele>54</ele>
        <time>2025-10-03T23:02:48Z</time>
      </trkpt>
      <trkpt lat="46.9372" lon="-1.50449">
        <ele>53</ele>
        <time>2025-10-03T23:02:56Z</time>
      </trkpt>
      <trkpt lat="46.93733" lon="-1.50462">
        <ele>53</ele>
        <time>2025-10-03T23:02:59Z</time>
      </trkpt>
      <trkpt lat="46.93748" lon="-1.50488">
        <ele>53</ele>
        <time>2025-10-03T23:03:05Z</time>
      </trkpt>
      <trkpt lat="46.93743" lon="-1.50498">
        <ele>53</ele>
        <time>2025-10-03T23:03:07Z</time>
      </trkpt>
      <trkpt lat="46.93736" lon="-1.5049">
        <ele>53</ele>
        <time>2025-10-03T23:03:09Z</time>
      </trkpt>
      <trkpt lat="46.93732" lon="-1.50488">
        <ele>53</ele>
        <time>2025-10-03T23:03:10Z</time>
      </trkpt>
      <trkpt lat="46.9373" lon="-1.50489">
        <ele>53</ele>
        <time>2025-10-03T23:03:10Z</time>
      </trkpt>
      <trkpt lat="46.93727" lon="-1.50491">
        <ele>53</ele>
        <time>2025-10-03T23:03:11Z</time>
      </trkpt>
      <trkpt lat="46.93725" lon="-1.50497">
        <ele>53</ele>
        <time>2025-10-03T23:03:12Z</time>
      </trkpt>
      <trkpt lat="46.9372" lon="-1.50543">
        <ele>52</ele>
        <time>2025-10-03T23:03:19Z</time>
      </trkpt>
      <trkpt lat="46.93714" lon="-1.50575">
        <ele>52</ele>
        <time>2025-10-03T23:03:25Z</time>
      </trkpt>
      <trkpt lat="46.9371" lon="-1.50591">
        <ele>51</ele>
        <time>2025-10-03T23:03:27Z</time>
      </trkpt>
      <trkpt lat="46.93704" lon="-1.50609">
        <ele>51</ele>
        <time>2025-10-03T23:03:31Z</time>
      </trkpt>
      <trkpt lat="46.93709" lon="-1.50614">
        <ele>51</ele>
        <time>2025-10-03T23:03:32Z</time>
      </trkpt>
      <trkpt lat="46.93715" lon="-1.50622">
        <ele>51</ele>
        <time>2025-10-03T23:03:34Z</time>
      </trkpt>
      <trkpt lat="46.93735" lon="-1.50657">
        <ele>50</ele>
        <time>2025-10-03T23:03:41Z</time>
      </trkpt>
      <trkpt lat="46.93739" lon="-1.50667">
        <ele>50</ele>
        <time>2025-10-03T23:03:43Z</time>
      </trkpt>
      <trkpt lat="46.93743" lon="-1.50678">
        <ele>50</ele>
        <time>2025-10-03T23:03:45Z</time>
      </trkpt>
      <trkpt lat="46.93745" lon="-1.5069">
        <ele>50</ele>
        <time>2025-10-03T23:03:47Z</time>
      </trkpt>
      <trkpt lat="46.93748" lon="-1.50714">
        <ele>49</ele>
        <time>2025-10-03T23:03:51Z</time>
      </trkpt>
      <trkpt lat="46.9375" lon="-1.50736">
        <ele>49</ele>
        <time>2025-10-03T23:03:54Z</time>
      </trkpt>
      <trkpt lat="46.93754" lon="-1.50838">
        <ele>48</ele>
        <time>2025-10-03T23:04:11Z</time>
      </trkpt>
      <trkpt lat="46.93749" lon="-1.50868">
        <ele>47</ele>
        <time>2025-10-03T23:04:16Z</time>
      </trkpt>
      <trkpt lat="46.93757" lon="-1.50882">
        <ele>46</ele>
        <time>2025-10-03T23:04:19Z</time>
      </trkpt>
      <trkpt lat="46.93762" lon="-1.50891">
        <ele>46</ele>
        <time>2025-10-03T23:04:20Z</time>
      </trkpt>
      <trkpt lat="46.93762" lon="-1.50895">
        <ele>46</ele>
        <time>2025-10-03T23:04:21Z</time>
      </trkpt>
      <trkpt lat="46.93762" lon="-1.50895">
        <ele>46</ele>
        <time>2025-10-03T23:04:21Z</time>
      </trkpt>
      <trkpt lat="46.93754" lon="-1.50921">
        <ele>45</ele>
        <time>2025-10-03T23:04:26Z</time>
      </trkpt>
      <trkpt lat="46.93753" lon="-1.50927">
        <ele>45</ele>
        <time>2025-10-03T23:04:27Z</time>
      </trkpt>
      <trkpt lat="46.93753" lon="-1.50932">
        <ele>45</ele>
        <time>2025-10-03T23:04:27Z</time>
      </trkpt>
      <trkpt lat="46.93755" lon="-1.50937">
        <ele>45</ele>
        <time>2025-10-03T23:04:28Z</time>
      </trkpt>
      <trkpt lat="46.93763" lon="-1.50944">
        <ele>45</ele>
        <time>2025-10-03T23:04:31Z</time>
      </trkpt>
      <trkpt lat="46.93769" lon="-1.5095">
        <ele>45</ele>
        <time>2025-10-03T23:04:32Z</time>
      </trkpt>
      <trkpt lat="46.93771" lon="-1.50956">
        <ele>45</ele>
        <time>2025-10-03T23:04:33Z</time>
      </trkpt>
      <trkpt lat="46.93772" lon="-1.50958">
        <ele>45</ele>
        <time>2025-10-03T23:04:34Z</time>
      </trkpt>
      <trkpt lat="46.9377" lon="-1.50973">
        <ele>45</ele>
        <time>2025-10-03T23:04:36Z</time>
      </trkpt>
      <trkpt lat="46.93775" lon="-1.50981">
        <ele>45</ele>
        <time>2025-10-03T23:04:38Z</time>
      </trkpt>
      <trkpt lat="46.93777" lon="-1.50984">
        <ele>45</ele>
        <time>2025-10-03T23:04:38Z</time>
      </trkpt>
      <trkpt lat="46.93783" lon="-1.51011">
        <ele>45</ele>
        <time>2025-10-03T23:04:43Z</time>
      </trkpt>
    </trkseg>
  </trk>
</gpx>